Time,TemperatureF,DewpointF,PressureIn,WindDirection,WindDirectionDegrees,WindSpeedMPH,WindSpeedGustMPH,Humidity,HourlyPrecipIn,Conditions,Clouds,dailyrainin,SoftwareType,DateUTC
2013-01-12 00:00:00,45.3,35.8,28.85,North,1,0.0,0.0,69,0.00,,BKN200,0.00,VWS V14.00,2013-01-12 05:00:00,
2013-01-12 00:01:00,45.5,35.9,28.85,North,1,0.0,0.0,69,0.00,,BKN200,0.00,VWS V14.00,2013-01-12 05:01:00,
2013-01-12 00:05:00,45.5,35.9,28.85,North,1,0.0,0.0,69,0.00,,BKN200,0.00,VWS V14.00,2013-01-12 05:05:00,
2013-01-12 00:06:00,45.5,36.3,28.85,WNW,293,0.0,0.0,70,0.00,,BKN200,0.00,VWS V14.00,2013-01-12 05:06:00,
2013-01-12 00:10:00,45.5,36.3,28.85,West,272,0.0,0.0,70,0.00,,BKN200,0.00,VWS V14.00,2013-01-12 05:10:00,
2013-01-12 00:11:00,45.5,36.3,28.85,West,271,0.0,0.0,70,0.00,,BKN200,0.00,VWS V14.00,2013-01-12 05:11:00,
2013-01-12 00:15:00,45.5,36.3,28.85,NNW,334,0.0,0.0,70,0.00,,BKN200,0.00,VWS V14.00,2013-01-12 05:15:00,
2013-01-12 00:16:00,45.7,36.5,28.85,NNW,333,0.0,0.0,70,0.00,,BKN200,0.00,VWS V14.00,2013-01-12 05:16:00,
2013-01-12 00:20:00,45.5,36.3,28.85,NNW,333,0.0,0.0,70,0.00,,BKN200,0.00,VWS V14.00,2013-01-12 05:20:00,
2013-01-12 00:21:00,45.5,36.3,28.85,NNW,334,0.0,0.0,70,0.00,,BKN200,0.00,VWS V14.00,2013-01-12 05:21:00,
2013-01-12 00:25:00,45.5,36.3,28.85,NNW,333,0.0,0.0,70,0.00,,BKN200,0.00,VWS V14.00,2013-01-12 05:25:00,
2013-01-12 00:26:00,45.3,36.1,28.85,NNW,333,0.0,0.0,70,0.00,,BKN200,0.00,VWS V14.00,2013-01-12 05:26:00,
2013-01-12 00:30:00,45.1,36.0,28.85,NNW,333,0.0,0.0,70,0.00,,BKN200,0.00,VWS V14.00,2013-01-12 05:30:00,
2013-01-12 00:31:00,45.1,36.0,28.85,NNW,334,0.0,0.0,70,0.00,,BKN200,0.00,VWS V14.00,2013-01-12 05:31:00,
2013-01-12 00:35:00,45.1,36.0,28.85,NNW,334,0.0,0.0,70,0.00,,BKN200,0.00,VWS V14.00,2013-01-12 05:35:00,
2013-01-12 00:36:00,45.1,36.0,28.85,NNW,334,0.0,0.0,70,0.00,,BKN200,0.00,VWS V14.00,2013-01-12 05:36:00,
2013-01-12 00:41:00,44.8,35.6,28.85,NNW,334,0.0,0.0,70,0.00,,BKN200,0.00,VWS V14.00,2013-01-12 05:41:00,
2013-01-12 00:42:00,44.8,35.6,28.85,NNW,333,0.0,0.0,70,0.00,,BKN200,0.00,VWS V14.00,2013-01-12 05:42:00,
2013-01-12 00:46:00,44.6,35.8,28.85,NNW,334,0.0,0.0,71,0.00,,BKN200,0.00,VWS V14.00,2013-01-12 05:46:00,
2013-01-12 00:47:00,44.6,35.8,28.85,NNW,333,0.0,0.0,71,0.00,,BKN200,0.00,VWS V14.00,2013-01-12 05:47:00,
2013-01-12 00:51:00,44.6,35.8,28.85,NNW,333,0.0,0.0,71,0.00,,BKN200,0.00,VWS V14.00,2013-01-12 05:51:00,
2013-01-12 00:52:00,44.6,35.8,28.85,NNW,333,0.0,0.0,71,0.00,,BKN200,0.00,VWS V14.00,2013-01-12 05:52:00,
2013-01-12 00:56:00,44.4,35.6,28.85,NE,52,0.0,0.0,71,0.00,,BKN200,0.00,VWS V14.00,2013-01-12 05:56:00,
2013-01-12 00:57:00,44.2,35.5,28.85,NE,52,0.0,0.0,71,0.00,,BKN200,0.00,VWS V14.00,2013-01-12 05:57:00,
2013-01-12 01:01:00,44.2,35.8,28.85,NE,52,0.0,0.0,72,0.00,,CLR,0.00,VWS V14.00,2013-01-12 06:01:00,
2013-01-12 01:02:00,44.2,35.8,28.85,NE,52,0.0,0.0,72,0.00,,CLR,0.00,VWS V14.00,2013-01-12 06:02:00,
2013-01-12 01:06:00,44.2,35.8,28.85,NE,52,0.0,0.0,72,0.00,,CLR,0.00,VWS V14.00,2013-01-12 06:06:00,
2013-01-12 01:07:00,44.2,35.8,28.85,NE,52,0.0,0.0,72,0.00,,CLR,0.00,VWS V14.00,2013-01-12 06:07:00,
2013-01-12 01:11:00,44.1,35.6,28.85,NE,52,0.0,0.0,72,0.00,,CLR,0.00,VWS V14.00,2013-01-12 06:11:00,
2013-01-12 01:12:00,44.1,35.6,28.85,NE,52,0.0,0.0,72,0.00,,CLR,0.00,VWS V14.00,2013-01-12 06:12:00,
2013-01-12 01:17:00,44.1,35.6,28.85,NE,52,0.0,0.0,72,0.00,,CLR,0.00,VWS V14.00,2013-01-12 06:17:00,
2013-01-12 01:22:00,43.9,35.5,28.85,NE,52,0.0,0.0,72,0.00,,CLR,0.00,VWS V14.00,2013-01-12 06:22:00,
2013-01-12 01:27:00,43.5,35.1,28.85,North,3,0.0,0.0,72,0.00,,CLR,0.00,VWS V14.00,2013-01-12 06:27:00,
2013-01-12 01:28:00,43.5,35.1,28.85,North,3,0.0,0.0,72,0.00,,CLR,0.00,VWS V14.00,2013-01-12 06:28:00,
2013-01-12 01:32:00,43.5,35.1,28.85,North,3,0.0,0.0,72,0.00,,CLR,0.00,VWS V14.00,2013-01-12 06:32:00,
2013-01-12 01:33:00,43.5,35.1,28.85,North,3,0.0,0.0,72,0.00,,CLR,0.00,VWS V14.00,2013-01-12 06:33:00,
2013-01-12 01:37:00,43.5,35.1,28.85,North,2,0.0,0.0,72,0.00,,CLR,0.00,VWS V14.00,2013-01-12 06:37:00,
2013-01-12 01:38:00,43.5,35.1,28.85,North,3,0.0,0.0,72,0.00,,CLR,0.00,VWS V14.00,2013-01-12 06:38:00,
2013-01-12 01:42:00,43.5,35.1,28.85,WSW,248,0.0,0.0,72,0.00,,CLR,0.00,VWS V14.00,2013-01-12 06:42:00,
2013-01-12 01:43:00,43.5,35.1,28.85,WSW,247,0.0,0.0,72,0.00,,CLR,0.00,VWS V14.00,2013-01-12 06:43:00,
2013-01-12 01:48:00,43.7,35.6,28.85,NW,324,0.0,0.0,73,0.00,,CLR,0.00,VWS V14.00,2013-01-12 06:48:00,
2013-01-12 01:53:00,43.7,35.6,28.85,NW,324,0.0,0.0,73,0.00,,CLR,0.00,VWS V14.00,2013-01-12 06:53:00,
2013-01-12 01:58:00,43.9,35.8,28.85,West,267,0.0,0.0,73,0.00,,CLR,0.00,VWS V14.00,2013-01-12 06:58:00,
2013-01-12 02:03:00,44.1,36.0,28.85,NW,314,0.0,0.0,73,0.00,,CLR,0.00,VWS V14.00,2013-01-12 07:03:00,
2013-01-12 02:04:00,44.1,36.0,28.85,NW,314,0.0,0.0,73,0.00,,CLR,0.00,VWS V14.00,2013-01-12 07:04:00,
2013-01-12 02:08:00,44.1,36.0,28.85,NW,314,0.0,0.0,73,0.00,,CLR,0.00,VWS V14.00,2013-01-12 07:08:00,
2013-01-12 02:09:00,44.1,36.0,28.85,NW,314,0.0,0.0,73,0.00,,CLR,0.00,VWS V14.00,2013-01-12 07:09:00,
2013-01-12 02:13:00,44.1,36.0,28.85,NW,314,0.0,0.0,73,0.00,,CLR,0.00,VWS V14.00,2013-01-12 07:13:00,
2013-01-12 02:14:00,44.1,36.0,28.85,NW,315,0.0,0.0,73,0.00,,CLR,0.00,VWS V14.00,2013-01-12 07:14:00,
2013-01-12 02:18:00,44.1,36.0,28.85,NW,314,0.0,0.0,73,0.00,,CLR,0.00,VWS V14.00,2013-01-12 07:18:00,
2013-01-12 02:19:00,44.1,36.0,28.85,NW,315,0.0,0.0,73,0.00,,CLR,0.00,VWS V14.00,2013-01-12 07:19:00,
2013-01-12 02:23:00,44.1,36.0,28.85,NW,314,0.0,0.0,73,0.00,,CLR,0.00,VWS V14.00,2013-01-12 07:23:00,
2013-01-12 02:24:00,43.9,35.8,28.85,NW,314,0.0,0.0,73,0.00,,CLR,0.00,VWS V14.00,2013-01-12 07:24:00,
2013-01-12 02:28:00,43.9,35.8,28.85,NW,315,0.0,0.0,73,0.00,,CLR,0.00,VWS V14.00,2013-01-12 07:28:00,
2013-01-12 02:29:00,43.9,35.8,28.85,NW,314,0.0,0.0,73,0.00,,CLR,0.00,VWS V14.00,2013-01-12 07:29:00,
2013-01-12 02:30:00,43.7,35.6,28.85,NW,314,0.0,0.0,73,0.00,,CLR,0.00,VWS V14.00,2013-01-12 07:30:00,
2013-01-12 02:33:00,43.7,35.6,28.85,NW,314,0.0,0.0,73,0.00,,CLR,0.00,VWS V14.00,2013-01-12 07:33:00,
2013-01-12 02:34:00,43.7,36.0,28.85,NW,315,0.0,0.0,74,0.00,,CLR,0.00,VWS V14.00,2013-01-12 07:34:00,
2013-01-12 02:35:00,43.7,36.0,28.85,NW,315,0.0,0.0,74,0.00,,CLR,0.00,VWS V14.00,2013-01-12 07:35:00,
2013-01-12 02:38:00,43.7,36.0,28.85,NW,315,0.0,0.0,74,0.00,,CLR,0.00,VWS V14.00,2013-01-12 07:38:00,
2013-01-12 02:39:00,43.7,36.0,28.85,NW,315,0.0,0.0,74,0.00,,CLR,0.00,VWS V14.00,2013-01-12 07:39:00,
2013-01-12 02:40:00,43.7,36.0,28.85,North,357,0.0,0.0,74,0.00,,CLR,0.00,VWS V14.00,2013-01-12 07:40:00,
2013-01-12 02:43:00,43.7,36.0,28.82,NNW,342,0.0,0.0,74,0.00,,CLR,0.00,VWS V14.00,2013-01-12 07:43:00,
2013-01-12 02:44:00,43.7,36.0,28.82,NE,44,0.0,0.0,74,0.00,,CLR,0.00,VWS V14.00,2013-01-12 07:44:00,
2013-01-12 02:45:00,43.7,36.0,28.82,NE,45,0.0,0.0,74,0.00,,CLR,0.00,VWS V14.00,2013-01-12 07:45:00,
2013-01-12 02:48:00,43.7,36.0,28.82,NE,50,0.0,0.0,74,0.00,,CLR,0.00,VWS V14.00,2013-01-12 07:48:00,
2013-01-12 02:49:00,43.7,36.0,28.82,NE,50,0.0,0.0,74,0.00,,CLR,0.00,VWS V14.00,2013-01-12 07:49:00,
2013-01-12 02:50:00,43.7,36.0,28.82,NE,50,0.0,0.0,74,0.00,,CLR,0.00,VWS V14.00,2013-01-12 07:50:00,
2013-01-12 02:53:00,43.7,36.0,28.82,ESE,106,0.0,0.0,74,0.00,,CLR,0.00,VWS V14.00,2013-01-12 07:53:00,
2013-01-12 02:54:00,43.7,36.0,28.82,ESE,106,0.0,0.0,74,0.00,,CLR,0.00,VWS V14.00,2013-01-12 07:54:00,
2013-01-12 02:55:00,43.7,36.0,28.82,ENE,66,0.0,0.0,74,0.00,,CLR,0.00,VWS V14.00,2013-01-12 07:55:00,
2013-01-12 02:59:00,43.7,36.0,28.85,East,101,0.0,0.0,74,0.00,,CLR,0.00,VWS V14.00,2013-01-12 07:59:00,
2013-01-12 03:00:00,43.7,36.0,28.85,East,101,0.0,0.0,74,0.00,,CLR,0.00,VWS V14.00,2013-01-12 08:00:00,
2013-01-12 03:04:00,43.7,36.0,28.85,ENE,69,0.0,0.0,74,0.00,,,0.00,VWS V14.00,2013-01-12 08:04:00,
2013-01-12 03:05:00,43.7,36.0,28.85,ENE,65,0.0,0.0,74,0.00,,,0.00,VWS V14.00,2013-01-12 08:05:00,
2013-01-12 03:09:00,43.9,36.1,28.85,ENE,66,0.0,0.0,74,0.00,,,0.00,VWS V14.00,2013-01-12 08:09:00,
2013-01-12 03:10:00,43.9,36.1,28.85,ENE,66,0.0,0.0,74,0.00,,,0.00,VWS V14.00,2013-01-12 08:10:00,
2013-01-12 03:14:00,43.7,36.0,28.85,ENE,65,0.0,0.0,74,0.00,,,0.00,VWS V14.00,2013-01-12 08:14:00,
2013-01-12 03:15:00,43.7,36.0,28.85,ENE,65,0.0,0.0,74,0.00,,,0.00,VWS V14.00,2013-01-12 08:15:00,
2013-01-12 03:19:00,43.5,35.8,28.85,ENE,66,0.0,0.0,74,0.00,,,0.00,VWS V14.00,2013-01-12 08:19:00,
2013-01-12 03:20:00,43.5,35.8,28.85,ENE,65,0.0,0.0,74,0.00,,,0.00,VWS V14.00,2013-01-12 08:20:00,
2013-01-12 03:24:00,43.5,36.1,28.85,East,99,0.0,0.0,75,0.00,,,0.00,VWS V14.00,2013-01-12 08:24:00,
2013-01-12 03:25:00,43.5,36.1,28.85,East,99,0.0,0.0,75,0.00,,,0.00,VWS V14.00,2013-01-12 08:25:00,
2013-01-12 03:29:00,43.5,36.1,28.85,ENE,72,0.0,0.0,75,0.00,,,0.00,VWS V14.00,2013-01-12 08:29:00,
2013-01-12 03:30:00,43.7,36.3,28.85,ENE,72,0.0,0.0,75,0.00,,,0.00,VWS V14.00,2013-01-12 08:30:00,
2013-01-12 03:34:00,43.7,36.3,28.85,ESE,102,0.0,0.0,75,0.00,,,0.00,VWS V14.00,2013-01-12 08:34:00,
2013-01-12 03:35:00,43.7,36.3,28.85,ENE,60,2.2,2.2,75,0.00,,,0.00,VWS V14.00,2013-01-12 08:35:00,
2013-01-12 03:36:00,43.9,36.5,28.85,East,87,0.0,0.0,75,0.00,,,0.00,VWS V14.00,2013-01-12 08:36:00,
2013-01-12 03:39:00,44.1,36.7,28.85,NE,55,0.0,0.0,75,0.00,,,0.00,VWS V14.00,2013-01-12 08:39:00,
2013-01-12 03:40:00,44.1,36.7,28.85,NE,55,0.0,0.0,75,0.00,,,0.00,VWS V14.00,2013-01-12 08:40:00,
2013-01-12 03:41:00,44.1,36.7,28.85,NE,55,0.0,0.0,75,0.00,,,0.00,VWS V14.00,2013-01-12 08:41:00,
2013-01-12 03:44:00,44.2,36.8,28.85,NE,55,0.0,0.0,75,0.00,,,0.00,VWS V14.00,2013-01-12 08:44:00,
2013-01-12 03:45:00,44.2,36.8,28.85,NE,55,0.0,0.0,75,0.00,,,0.00,VWS V14.00,2013-01-12 08:45:00,
2013-01-12 03:46:00,44.2,36.8,28.85,NE,55,0.0,0.0,75,0.00,,,0.00,VWS V14.00,2013-01-12 08:46:00,
2013-01-12 03:50:00,44.2,36.8,28.85,ESE,113,0.0,0.0,75,0.00,,,0.00,VWS V14.00,2013-01-12 08:50:00,
2013-01-12 03:51:00,44.2,36.8,28.85,NE,52,0.0,0.0,75,0.00,,,0.00,VWS V14.00,2013-01-12 08:51:00,
2013-01-12 03:55:00,44.2,36.8,28.85,NE,47,0.0,0.0,75,0.00,,,0.00,VWS V14.00,2013-01-12 08:55:00,
2013-01-12 03:56:00,44.2,36.8,28.85,NE,47,0.0,0.0,75,0.00,,,0.00,VWS V14.00,2013-01-12 08:56:00,
2013-01-12 04:00:00,44.2,36.8,28.85,NE,47,0.0,0.0,75,0.00,,,0.00,VWS V14.00,2013-01-12 09:00:00,
2013-01-12 04:02:00,44.2,36.8,28.85,ENE,61,0.0,0.0,75,0.00,,,0.00,VWS V14.00,2013-01-12 09:02:00,
2013-01-12 04:05:00,44.4,37.0,28.85,East,82,0.0,0.0,75,0.00,,CLR,0.00,VWS V14.00,2013-01-12 09:05:00,
2013-01-12 04:06:00,44.4,37.0,28.85,East,82,0.0,0.0,75,0.00,,CLR,0.00,VWS V14.00,2013-01-12 09:06:00,
2013-01-12 04:07:00,44.4,37.3,28.85,ENE,75,0.0,0.0,76,0.00,,CLR,0.00,VWS V14.00,2013-01-12 09:07:00,
2013-01-12 04:10:00,44.4,37.3,28.85,ENE,76,0.0,0.0,76,0.00,,CLR,0.00,VWS V14.00,2013-01-12 09:10:00,
2013-01-12 04:11:00,44.4,37.3,28.85,ENE,76,0.0,0.0,76,0.00,,CLR,0.00,VWS V14.00,2013-01-12 09:11:00,
2013-01-12 04:12:00,44.4,37.3,28.85,ENE,75,0.0,0.0,76,0.00,,CLR,0.00,VWS V14.00,2013-01-12 09:12:00,
2013-01-12 04:15:00,44.2,36.8,28.85,East,85,0.0,0.0,75,0.00,,CLR,0.00,VWS V14.00,2013-01-12 09:15:00,
2013-01-12 04:16:00,44.2,36.8,28.85,East,85,0.0,0.0,75,0.00,,CLR,0.00,VWS V14.00,2013-01-12 09:16:00,
2013-01-12 04:17:00,44.2,36.8,28.85,East,86,0.0,0.0,75,0.00,,CLR,0.00,VWS V14.00,2013-01-12 09:17:00,
2013-01-12 04:20:00,44.2,37.2,28.85,East,85,0.0,0.0,76,0.00,,CLR,0.00,VWS V14.00,2013-01-12 09:20:00,
2013-01-12 04:21:00,44.2,37.2,28.85,East,86,0.0,0.0,76,0.00,,CLR,0.00,VWS V14.00,2013-01-12 09:21:00,
2013-01-12 04:22:00,44.2,37.2,28.85,East,85,0.0,0.0,76,0.00,,CLR,0.00,VWS V14.00,2013-01-12 09:22:00,
2013-01-12 04:25:00,44.2,37.2,28.85,ESE,102,0.0,0.0,76,0.00,,CLR,0.00,VWS V14.00,2013-01-12 09:25:00,
2013-01-12 04:26:00,44.2,37.2,28.85,East,90,0.0,0.0,76,0.00,,CLR,0.00,VWS V14.00,2013-01-12 09:26:00,
2013-01-12 04:27:00,44.2,37.2,28.85,East,90,0.0,0.0,76,0.00,,CLR,0.00,VWS V14.00,2013-01-12 09:27:00,
2013-01-12 04:30:00,44.2,37.2,28.85,East,90,0.0,0.0,76,0.00,,CLR,0.00,VWS V14.00,2013-01-12 09:30:00,
2013-01-12 04:31:00,44.2,37.2,28.85,East,90,0.0,0.0,76,0.00,,CLR,0.00,VWS V14.00,2013-01-12 09:31:00,
2013-01-12 04:32:00,44.2,37.2,28.85,East,90,0.0,0.0,76,0.00,,CLR,0.00,VWS V14.00,2013-01-12 09:32:00,
2013-01-12 04:36:00,44.2,37.2,28.85,North,353,0.0,0.0,76,0.00,,CLR,0.00,VWS V14.00,2013-01-12 09:36:00,
2013-01-12 04:37:00,44.2,37.2,28.85,North,349,0.0,0.0,76,0.00,,CLR,0.00,VWS V14.00,2013-01-12 09:37:00,
2013-01-12 04:41:00,44.1,37.0,28.85,North,353,0.0,0.0,76,0.00,,CLR,0.00,VWS V14.00,2013-01-12 09:41:00,
2013-01-12 04:42:00,44.1,37.0,28.85,North,350,0.0,0.0,76,0.00,,CLR,0.00,VWS V14.00,2013-01-12 09:42:00,
2013-01-12 04:46:00,44.1,37.0,28.85,WSW,251,0.0,0.0,76,0.00,,CLR,0.00,VWS V14.00,2013-01-12 09:46:00,
2013-01-12 04:47:00,44.1,37.0,28.85,WSW,252,0.0,0.0,76,0.00,,CLR,0.00,VWS V14.00,2013-01-12 09:47:00,
2013-01-12 04:51:00,44.1,37.0,28.85,WSW,254,0.0,0.0,76,0.00,,CLR,0.00,VWS V14.00,2013-01-12 09:51:00,
2013-01-12 04:52:00,44.1,37.0,28.85,WSW,255,0.0,0.0,76,0.00,,CLR,0.00,VWS V14.00,2013-01-12 09:52:00,
2013-01-12 04:53:00,44.1,37.0,28.85,WSW,254,0.0,0.0,76,0.00,,CLR,0.00,VWS V14.00,2013-01-12 09:53:00,
2013-01-12 04:56:00,44.1,37.0,28.85,West,263,0.0,0.0,76,0.00,,CLR,0.00,VWS V14.00,2013-01-12 09:56:00,
2013-01-12 04:57:00,44.1,37.0,28.85,WSW,242,0.0,0.0,76,0.00,,CLR,0.00,VWS V14.00,2013-01-12 09:57:00,
2013-01-12 04:58:00,44.1,37.0,28.85,WSW,242,0.0,0.0,76,0.00,,CLR,0.00,VWS V14.00,2013-01-12 09:58:00,
2013-01-12 05:01:00,44.1,37.0,28.85,ENE,74,0.0,0.0,76,0.00,,CLR,0.00,VWS V14.00,2013-01-12 10:01:00,
2013-01-12 05:02:00,44.1,37.0,28.85,East,81,0.0,0.0,76,0.00,,CLR,0.00,VWS V14.00,2013-01-12 10:02:00,
2013-01-12 05:03:00,44.2,37.2,28.85,East,81,0.0,0.0,76,0.00,,CLR,0.00,VWS V14.00,2013-01-12 10:03:00,
2013-01-12 05:06:00,44.2,37.2,28.85,East,81,0.0,0.0,76,0.00,,CLR,0.00,VWS V14.00,2013-01-12 10:06:00,
2013-01-12 05:07:00,44.4,37.3,28.85,ENE,71,0.0,0.0,76,0.00,,CLR,0.00,VWS V14.00,2013-01-12 10:07:00,
2013-01-12 05:08:00,44.4,37.3,28.85,ENE,71,0.0,0.0,76,0.00,,CLR,0.00,VWS V14.00,2013-01-12 10:08:00,
2013-01-12 05:11:00,44.4,37.3,28.85,ENE,70,0.0,0.0,76,0.00,,CLR,0.00,VWS V14.00,2013-01-12 10:11:00,
2013-01-12 05:12:00,44.4,37.3,28.85,ENE,70,0.0,0.0,76,0.00,,CLR,0.00,VWS V14.00,2013-01-12 10:12:00,
2013-01-12 05:14:00,44.4,37.3,28.85,East,88,0.0,0.0,76,0.00,,CLR,0.00,VWS V14.00,2013-01-12 10:14:00,
2013-01-12 05:16:00,44.4,37.3,28.85,East,86,0.0,0.0,76,0.00,,CLR,0.00,VWS V14.00,2013-01-12 10:16:00,
2013-01-12 05:17:00,44.4,37.3,28.85,East,86,0.0,0.0,76,0.00,,CLR,0.00,VWS V14.00,2013-01-12 10:17:00,
2013-01-12 05:19:00,44.4,37.3,28.85,WNW,298,0.0,0.0,76,0.00,,CLR,0.00,VWS V14.00,2013-01-12 10:19:00,
2013-01-12 05:21:00,44.4,37.7,28.85,ENE,72,0.0,0.0,77,0.00,,CLR,0.00,VWS V14.00,2013-01-12 10:21:00,
2013-01-12 05:22:00,44.4,37.7,28.85,ENE,72,0.0,0.0,77,0.00,,CLR,0.00,VWS V14.00,2013-01-12 10:22:00,
2013-01-12 05:24:00,44.4,37.7,28.85,ENE,72,0.0,0.0,77,0.00,,CLR,0.00,VWS V14.00,2013-01-12 10:24:00,
2013-01-12 05:26:00,44.2,37.5,28.82,ENE,72,0.0,0.0,77,0.00,,CLR,0.00,VWS V14.00,2013-01-12 10:26:00,
2013-01-12 05:27:00,44.2,37.5,28.82,ENE,75,0.0,0.0,77,0.00,,CLR,0.00,VWS V14.00,2013-01-12 10:27:00,
2013-01-12 05:29:00,44.2,37.5,28.82,ENE,75,0.0,0.0,77,0.00,,CLR,0.00,VWS V14.00,2013-01-12 10:29:00,
2013-01-12 05:31:00,44.2,37.5,28.82,NNE,29,0.0,0.0,77,0.00,,CLR,0.00,VWS V14.00,2013-01-12 10:31:00,
2013-01-12 05:32:00,44.2,37.5,28.82,NNE,29,0.0,0.0,77,0.00,,CLR,0.00,VWS V14.00,2013-01-12 10:32:00,
2013-01-12 05:34:00,44.2,37.5,28.82,North,0,0.0,0.0,77,0.00,,CLR,0.00,VWS V14.00,2013-01-12 10:34:00,
2013-01-12 05:36:00,44.2,37.5,28.82,WNW,294,0.0,0.0,77,0.00,,CLR,0.00,VWS V14.00,2013-01-12 10:36:00,
2013-01-12 05:37:00,44.2,37.5,28.82,WNW,294,0.0,0.0,77,0.00,,CLR,0.00,VWS V14.00,2013-01-12 10:37:00,
2013-01-12 05:39:00,44.2,37.5,28.82,ENE,69,0.0,0.0,77,0.00,,CLR,0.00,VWS V14.00,2013-01-12 10:39:00,
2013-01-12 05:41:00,44.4,37.7,28.85,East,79,0.0,0.0,77,0.00,,CLR,0.00,VWS V14.00,2013-01-12 10:41:00,
2013-01-12 05:42:00,44.4,37.7,28.85,East,79,0.0,0.0,77,0.00,,CLR,0.00,VWS V14.00,2013-01-12 10:42:00,
2013-01-12 05:44:00,44.4,37.7,28.85,East,87,0.0,0.0,77,0.00,,CLR,0.00,VWS V14.00,2013-01-12 10:44:00,
2013-01-12 05:46:00,44.6,37.5,28.85,East,80,0.0,0.0,76,0.00,,CLR,0.00,VWS V14.00,2013-01-12 10:46:00,
2013-01-12 05:47:00,44.6,37.8,28.85,ESE,108,0.0,0.0,77,0.00,,CLR,0.00,VWS V14.00,2013-01-12 10:47:00,
2013-01-12 05:49:00,44.6,37.8,28.85,ESE,105,0.0,0.0,77,0.00,,CLR,0.00,VWS V14.00,2013-01-12 10:49:00,
2013-01-12 05:51:00,44.6,37.8,28.85,East,100,0.0,0.0,77,0.00,,CLR,0.00,VWS V14.00,2013-01-12 10:51:00,
2013-01-12 05:52:00,44.6,37.5,28.85,East,100,0.0,0.0,76,0.00,,CLR,0.00,VWS V14.00,2013-01-12 10:52:00,
2013-01-12 05:54:00,44.6,37.5,28.85,ENE,65,0.0,0.0,76,0.00,,CLR,0.00,VWS V14.00,2013-01-12 10:54:00,
2013-01-12 05:57:00,44.4,37.7,28.85,ENE,77,0.0,0.0,77,0.00,,CLR,0.00,VWS V14.00,2013-01-12 10:57:00,
2013-01-12 05:59:00,44.6,37.5,28.85,East,84,0.0,0.0,76,0.00,,OVC220,0.00,VWS V14.00,2013-01-12 10:59:00,
2013-01-12 06:02:00,44.6,37.8,28.85,East,84,0.0,0.0,77,0.00,,OVC220,0.00,VWS V14.00,2013-01-12 11:02:00,
2013-01-12 06:04:00,44.4,37.7,28.85,ESE,104,0.0,0.0,77,0.00,,OVC220,0.00,VWS V14.00,2013-01-12 11:04:00,
2013-01-12 06:07:00,44.2,37.5,28.85,ESE,104,0.0,0.0,77,0.00,,OVC220,0.00,VWS V14.00,2013-01-12 11:07:00,
2013-01-12 06:09:00,44.2,37.5,28.85,East,90,0.0,0.0,77,0.00,,OVC220,0.00,VWS V14.00,2013-01-12 11:09:00,
2013-01-12 06:12:00,44.2,37.5,28.85,East,91,0.0,0.0,77,0.00,,OVC220,0.00,VWS V14.00,2013-01-12 11:12:00,
2013-01-12 06:13:00,44.2,37.5,28.85,ENE,78,0.0,0.0,77,0.00,,OVC220,0.00,VWS V14.00,2013-01-12 11:13:00,
2013-01-12 06:14:00,44.2,37.5,28.85,ENE,78,0.0,0.0,77,0.00,,OVC220,0.00,VWS V14.00,2013-01-12 11:14:00,
2013-01-12 06:17:00,44.2,37.5,28.85,ENE,64,0.0,0.0,77,0.00,,OVC220,0.00,VWS V14.00,2013-01-12 11:17:00,
2013-01-12 06:18:00,44.2,37.5,28.85,ENE,63,0.0,0.0,77,0.00,,OVC220,0.00,VWS V14.00,2013-01-12 11:18:00,
2013-01-12 06:20:00,44.2,37.5,28.85,ESE,106,0.0,0.0,77,0.00,,OVC220,0.00,VWS V14.00,2013-01-12 11:20:00,
2013-01-12 06:22:00,44.4,37.7,28.85,East,86,0.0,0.0,77,0.00,,OVC220,0.00,VWS V14.00,2013-01-12 11:22:00,
2013-01-12 06:23:00,44.4,37.7,28.85,ESE,113,0.0,0.0,77,0.00,,OVC220,0.00,VWS V14.00,2013-01-12 11:23:00,
2013-01-12 06:25:00,44.4,37.7,28.85,East,98,2.2,2.2,77,0.00,,OVC220,0.00,VWS V14.00,2013-01-12 11:25:00,
2013-01-12 06:27:00,44.4,37.7,28.85,East,79,0.0,0.0,77,0.00,,OVC220,0.00,VWS V14.00,2013-01-12 11:27:00,
2013-01-12 06:28:00,44.6,37.8,28.85,NNE,33,0.0,0.0,77,0.00,,OVC220,0.00,VWS V14.00,2013-01-12 11:28:00,
2013-01-12 06:30:00,44.6,37.8,28.85,East,79,0.0,0.0,77,0.00,,OVC220,0.00,VWS V14.00,2013-01-12 11:30:00,
2013-01-12 06:32:00,44.6,37.8,28.85,East,79,0.0,0.0,77,0.00,,OVC220,0.00,VWS V14.00,2013-01-12 11:32:00,
2013-01-12 06:33:00,44.6,37.8,28.85,ENE,58,2.2,2.2,77,0.00,,OVC220,0.00,VWS V14.00,2013-01-12 11:33:00,
2013-01-12 06:36:00,44.6,37.8,28.85,NE,55,0.0,0.0,77,0.00,,OVC220,0.00,VWS V14.00,2013-01-12 11:36:00,
2013-01-12 06:37:00,44.6,37.8,28.85,NE,55,0.0,0.0,77,0.00,,OVC220,0.00,VWS V14.00,2013-01-12 11:37:00,
2013-01-12 06:38:00,44.4,37.7,28.85,NE,55,0.0,0.0,77,0.00,,OVC220,0.00,VWS V14.00,2013-01-12 11:38:00,
2013-01-12 06:41:00,44.4,37.7,28.85,SE,131,0.0,0.0,77,0.00,,OVC220,0.00,VWS V14.00,2013-01-12 11:41:00,
2013-01-12 06:42:00,44.4,37.7,28.85,NNW,335,0.0,0.0,77,0.00,,OVC220,0.00,VWS V14.00,2013-01-12 11:42:00,
2013-01-12 06:43:00,44.4,37.7,28.85,NNW,335,0.0,0.0,77,0.00,,OVC220,0.00,VWS V14.00,2013-01-12 11:43:00,
2013-01-12 06:46:00,44.4,37.7,28.85,WSW,249,0.0,0.0,77,0.00,,OVC220,0.00,VWS V14.00,2013-01-12 11:46:00,
2013-01-12 06:47:00,44.4,37.7,28.85,ESE,110,4.9,4.9,77,0.00,,OVC220,0.00,VWS V14.00,2013-01-12 11:47:00,
2013-01-12 06:48:00,44.4,37.7,28.85,East,82,0.0,0.0,77,0.00,,OVC220,0.00,VWS V14.00,2013-01-12 11:48:00,
2013-01-12 06:51:00,44.6,37.8,28.85,ESE,105,0.0,0.0,77,0.00,,OVC220,0.00,VWS V14.00,2013-01-12 11:51:00,
2013-01-12 06:52:00,44.6,37.8,28.85,East,81,0.0,0.0,77,0.00,,OVC220,0.00,VWS V14.00,2013-01-12 11:52:00,
2013-01-12 06:53:00,44.6,37.8,28.85,East,97,0.0,0.0,77,0.00,,OVC220,0.00,VWS V14.00,2013-01-12 11:53:00,
2013-01-12 06:54:00,44.6,37.8,28.85,East,90,2.2,2.2,77,0.00,,OVC220,0.00,VWS V14.00,2013-01-12 11:54:00,
2013-01-12 06:56:00,44.6,37.8,28.85,East,84,0.0,0.0,77,0.00,,OVC220,0.00,VWS V14.00,2013-01-12 11:56:00,
2013-01-12 06:58:00,44.6,37.8,28.85,ENE,59,0.0,0.0,77,0.00,,OVC220,0.00,VWS V14.00,2013-01-12 11:58:00,
2013-01-12 06:59:00,44.6,37.8,28.85,ENE,59,0.0,0.0,77,0.00,,OVC220,0.00,VWS V14.00,2013-01-12 11:59:00,
2013-01-12 07:01:00,44.6,37.8,28.85,ENE,72,0.0,0.0,77,0.00,,OVC220,0.00,VWS V14.00,2013-01-12 12:01:00,
2013-01-12 07:03:00,44.6,37.8,28.85,East,87,0.0,0.0,77,0.00,,BKN220,0.00,VWS V14.00,2013-01-12 12:03:00,
2013-01-12 07:04:00,44.6,37.8,28.85,East,82,0.0,0.0,77,0.00,,BKN220,0.00,VWS V14.00,2013-01-12 12:04:00,
2013-01-12 07:06:00,44.6,37.8,28.85,ENE,71,0.0,0.0,77,0.00,,BKN220,0.00,VWS V14.00,2013-01-12 12:06:00,
2013-01-12 07:08:00,44.6,37.8,28.85,ENE,71,0.0,0.0,77,0.00,,BKN220,0.00,VWS V14.00,2013-01-12 12:08:00,
2013-01-12 07:09:00,44.6,37.8,28.85,ENE,71,0.0,0.0,77,0.00,,BKN220,0.00,VWS V14.00,2013-01-12 12:09:00,
2013-01-12 07:11:00,44.6,37.8,28.88,NE,49,0.0,0.0,77,0.00,,BKN220,0.00,VWS V14.00,2013-01-12 12:11:00,
2013-01-12 07:13:00,44.6,37.8,28.88,East,81,0.0,0.0,77,0.00,,BKN220,0.00,VWS V14.00,2013-01-12 12:13:00,
2013-01-12 07:14:00,44.6,37.8,28.88,NNW,346,0.0,0.0,77,0.00,,BKN220,0.00,VWS V14.00,2013-01-12 12:14:00,
2013-01-12 07:17:00,44.6,37.8,28.88,East,88,0.0,0.0,77,0.00,,BKN220,0.00,VWS V14.00,2013-01-12 12:17:00,
2013-01-12 07:19:00,44.6,38.2,28.88,ENE,69,0.0,0.0,78,0.00,,BKN220,0.00,VWS V14.00,2013-01-12 12:19:00,
2013-01-12 07:22:00,44.6,38.2,28.88,ENE,69,0.0,0.0,78,0.00,,BKN220,0.00,VWS V14.00,2013-01-12 12:22:00,
2013-01-12 07:24:00,44.6,38.2,28.88,ENE,69,0.0,0.0,78,0.00,,BKN220,0.00,VWS V14.00,2013-01-12 12:24:00,
2013-01-12 07:25:00,44.6,38.2,28.88,NE,38,3.6,3.6,78,0.00,,BKN220,0.00,VWS V14.00,2013-01-12 12:25:00,
2013-01-12 07:27:00,44.8,38.3,28.88,ESE,117,0.0,0.0,78,0.00,,BKN220,0.00,VWS V14.00,2013-01-12 12:27:00,
2013-01-12 07:29:00,44.8,38.3,28.88,East,86,0.0,0.0,78,0.00,,BKN220,0.00,VWS V14.00,2013-01-12 12:29:00,
2013-01-12 07:32:00,45.0,38.5,28.88,ENE,61,0.0,0.0,78,0.00,,BKN220,0.00,VWS V14.00,2013-01-12 12:32:00,
2013-01-12 07:34:00,44.8,38.3,28.88,ENE,62,0.0,0.0,78,0.00,,BKN220,0.00,VWS V14.00,2013-01-12 12:34:00,
2013-01-12 07:35:00,44.8,38.3,28.88,ENE,62,0.0,0.0,78,0.00,,BKN220,0.00,VWS V14.00,2013-01-12 12:35:00,
2013-01-12 07:37:00,44.8,38.3,28.88,ESE,110,0.0,0.0,78,0.00,,BKN220,0.00,VWS V14.00,2013-01-12 12:37:00,
2013-01-12 07:39:00,44.8,38.3,28.88,SW,217,0.0,0.0,78,0.00,,BKN220,0.00,VWS V14.00,2013-01-12 12:39:00,
2013-01-12 07:40:00,44.8,38.3,28.88,East,87,0.0,0.0,78,0.00,,BKN220,0.00,VWS V14.00,2013-01-12 12:40:00,
2013-01-12 07:42:00,44.6,38.2,28.88,East,87,0.0,0.0,78,0.00,,BKN220,0.00,VWS V14.00,2013-01-12 12:42:00,
2013-01-12 07:44:00,44.6,38.2,28.88,East,87,0.0,0.0,78,0.00,,BKN220,0.00,VWS V14.00,2013-01-12 12:44:00,
2013-01-12 07:45:00,44.6,38.2,28.88,East,87,0.0,0.0,78,0.00,,BKN220,0.00,VWS V14.00,2013-01-12 12:45:00,
2013-01-12 07:47:00,44.6,38.2,28.88,East,87,0.0,0.0,78,0.00,,BKN220,0.00,VWS V14.00,2013-01-12 12:47:00,
2013-01-12 07:49:00,44.6,38.2,28.88,East,87,0.0,0.0,78,0.00,,BKN220,0.00,VWS V14.00,2013-01-12 12:49:00,
2013-01-12 07:50:00,44.6,38.2,28.88,ENE,76,3.1,3.1,78,0.00,,BKN220,0.00,VWS V14.00,2013-01-12 12:50:00,
2013-01-12 07:52:00,44.8,38.3,28.88,ENE,62,0.0,0.0,78,0.00,,BKN220,0.00,VWS V14.00,2013-01-12 12:52:00,
2013-01-12 07:54:00,44.8,38.3,28.88,ENE,62,0.0,0.0,78,0.00,,BKN220,0.00,VWS V14.00,2013-01-12 12:54:00,
2013-01-12 07:56:00,44.8,38.3,28.88,SSE,151,0.0,0.0,78,0.00,,BKN220,0.00,VWS V14.00,2013-01-12 12:56:00,
2013-01-12 07:57:00,44.8,38.3,28.88,East,93,0.0,0.0,78,0.00,,BKN220,0.00,VWS V14.00,2013-01-12 12:57:00,
2013-01-12 07:59:00,44.8,38.3,28.88,East,83,0.0,0.0,78,0.00,,BKN220,0.00,VWS V14.00,2013-01-12 12:59:00,
2013-01-12 08:01:00,44.8,38.3,28.88,East,83,0.0,0.0,78,0.00,,BKN220,0.00,VWS V14.00,2013-01-12 13:01:00,
2013-01-12 08:02:00,44.8,38.3,28.88,East,83,0.0,0.0,78,0.00,,BKN250,0.00,VWS V14.00,2013-01-12 13:02:00,
2013-01-12 08:04:00,44.8,38.3,28.88,ENE,59,0.0,0.0,78,0.00,,BKN250,0.00,VWS V14.00,2013-01-12 13:04:00,
2013-01-12 08:06:00,44.8,38.3,28.88,North,357,0.0,0.0,78,0.00,,BKN250,0.00,VWS V14.00,2013-01-12 13:06:00,
2013-01-12 08:07:00,44.8,38.3,28.88,North,2,0.0,0.0,78,0.00,,BKN250,0.00,VWS V14.00,2013-01-12 13:07:00,
2013-01-12 08:09:00,44.8,38.3,28.88,East,84,0.0,0.0,78,0.00,,BKN250,0.00,VWS V14.00,2013-01-12 13:09:00,
2013-01-12 08:11:00,44.8,38.3,28.88,East,84,0.0,0.0,78,0.00,,BKN250,0.00,VWS V14.00,2013-01-12 13:11:00,
2013-01-12 08:13:00,44.8,38.3,28.88,East,86,0.0,0.0,78,0.00,,BKN250,0.00,VWS V14.00,2013-01-12 13:13:00,
2013-01-12 08:14:00,44.8,38.3,28.88,East,86,0.0,0.0,78,0.00,,BKN250,0.00,VWS V14.00,2013-01-12 13:14:00,
2013-01-12 08:16:00,44.8,38.3,28.88,East,86,0.0,0.0,78,0.00,,BKN250,0.00,VWS V14.00,2013-01-12 13:16:00,
2013-01-12 08:18:00,44.8,38.3,28.88,ESE,116,0.0,0.0,78,0.00,,BKN250,0.00,VWS V14.00,2013-01-12 13:18:00,
2013-01-12 08:19:00,44.8,38.3,28.88,East,101,0.0,0.0,78,0.00,,BKN250,0.00,VWS V14.00,2013-01-12 13:19:00,
2013-01-12 08:20:00,44.8,38.3,28.88,East,101,0.0,0.0,78,0.00,,BKN250,0.00,VWS V14.00,2013-01-12 13:20:00,
2013-01-12 08:21:00,44.8,38.3,28.88,WSW,254,0.0,0.0,78,0.00,,BKN250,0.00,VWS V14.00,2013-01-12 13:21:00,
2013-01-12 08:23:00,45.0,38.5,28.88,East,93,0.0,0.0,78,0.00,,BKN250,0.00,VWS V14.00,2013-01-12 13:23:00,
2013-01-12 08:24:00,45.0,38.5,28.88,East,93,0.0,0.0,78,0.00,,BKN250,0.00,VWS V14.00,2013-01-12 13:24:00,
2013-01-12 08:25:00,45.0,38.5,28.88,East,93,0.0,0.0,78,0.00,,BKN250,0.00,VWS V14.00,2013-01-12 13:25:00,
2013-01-12 08:26:00,45.0,38.5,28.88,East,93,0.0,0.0,78,0.00,,BKN250,0.00,VWS V14.00,2013-01-12 13:26:00,
2013-01-12 08:28:00,45.0,38.5,28.88,ENE,77,0.0,0.0,78,0.00,,BKN250,0.00,VWS V14.00,2013-01-12 13:28:00,
2013-01-12 08:29:00,45.1,39.0,28.88,ENE,78,0.0,0.0,79,0.00,,BKN250,0.00,VWS V14.00,2013-01-12 13:29:00,
2013-01-12 08:30:00,45.1,39.0,28.88,ENE,78,0.0,0.0,79,0.00,,BKN250,0.00,VWS V14.00,2013-01-12 13:30:00,
2013-01-12 08:31:00,45.1,39.0,28.88,East,83,0.0,0.0,79,0.00,,BKN250,0.00,VWS V14.00,2013-01-12 13:31:00,
2013-01-12 08:33:00,45.3,39.2,28.88,East,83,0.0,0.0,79,0.00,,BKN250,0.00,VWS V14.00,2013-01-12 13:33:00,
2013-01-12 08:34:00,45.3,39.2,28.88,East,87,0.0,0.0,79,0.00,,BKN250,0.00,VWS V14.00,2013-01-12 13:34:00,
2013-01-12 08:35:00,45.3,39.2,28.88,East,87,0.0,0.0,79,0.00,,BKN250,0.00,VWS V14.00,2013-01-12 13:35:00,
2013-01-12 08:36:00,45.3,39.2,28.88,East,97,0.0,0.0,79,0.00,,BKN250,0.00,VWS V14.00,2013-01-12 13:36:00,
2013-01-12 08:38:00,45.3,39.2,28.88,ENE,78,0.0,0.0,79,0.00,,BKN250,0.00,VWS V14.00,2013-01-12 13:38:00,
2013-01-12 08:39:00,45.5,39.4,28.88,ENE,66,0.0,0.0,79,0.00,,BKN250,0.00,VWS V14.00,2013-01-12 13:39:00,
2013-01-12 08:40:00,45.5,39.4,28.88,ENE,66,0.0,0.0,79,0.00,,BKN250,0.00,VWS V14.00,2013-01-12 13:40:00,
2013-01-12 08:41:00,45.5,39.4,28.88,ENE,67,0.0,0.0,79,0.00,,BKN250,0.00,VWS V14.00,2013-01-12 13:41:00,
2013-01-12 08:43:00,45.5,39.4,28.88,ENE,77,0.0,0.0,79,0.00,,BKN250,0.00,VWS V14.00,2013-01-12 13:43:00,
2013-01-12 08:45:00,45.5,39.4,28.88,SW,229,0.0,0.0,79,0.00,,BKN250,0.00,VWS V14.00,2013-01-12 13:45:00,
2013-01-12 08:46:00,45.7,39.5,28.88,ENE,68,0.0,0.0,79,0.00,,BKN250,0.00,VWS V14.00,2013-01-12 13:46:00,
2013-01-12 08:48:00,45.7,39.5,28.88,ENE,58,0.0,0.0,79,0.00,,BKN250,0.00,VWS V14.00,2013-01-12 13:48:00,
2013-01-12 08:50:00,45.7,39.5,28.88,East,94,0.0,0.0,79,0.00,,BKN250,0.00,VWS V14.00,2013-01-12 13:50:00,
2013-01-12 08:51:00,45.9,39.7,28.88,ENE,71,0.0,0.0,79,0.00,,BKN250,0.00,VWS V14.00,2013-01-12 13:51:00,
2013-01-12 08:53:00,45.9,39.7,28.88,East,95,0.0,0.0,79,0.00,,BKN250,0.00,VWS V14.00,2013-01-12 13:53:00,
2013-01-12 08:55:00,45.9,39.7,28.88,ENE,74,2.7,2.7,79,0.00,,BKN250,0.00,VWS V14.00,2013-01-12 13:55:00,
2013-01-12 08:57:00,45.9,39.7,28.91,NNE,16,0.0,0.0,79,0.00,,BKN250,0.00,VWS V14.00,2013-01-12 13:57:00,
2013-01-12 08:58:00,45.9,39.7,28.91,ENE,76,0.0,0.0,79,0.00,,BKN250,0.00,VWS V14.00,2013-01-12 13:58:00,
2013-01-12 09:00:00,45.9,39.7,28.91,East,79,0.0,0.0,79,0.00,,BKN250,0.00,VWS V14.00,2013-01-12 14:00:00,
2013-01-12 09:02:00,45.9,39.7,28.91,ENE,64,0.0,0.0,79,0.00,,OVC220,0.00,VWS V14.00,2013-01-12 14:02:00,
2013-01-12 09:03:00,46.0,39.9,28.91,ENE,74,0.0,0.0,79,0.00,,OVC220,0.00,VWS V14.00,2013-01-12 14:03:00,
2013-01-12 09:05:00,46.0,39.9,28.91,ENE,75,0.0,0.0,79,0.00,,OVC220,0.00,VWS V14.00,2013-01-12 14:05:00,
2013-01-12 09:06:00,46.0,39.9,28.91,ENE,75,0.0,0.0,79,0.00,,OVC220,0.00,VWS V14.00,2013-01-12 14:06:00,
2013-01-12 09:07:00,46.0,39.9,28.91,East,79,0.0,0.0,79,0.00,,OVC220,0.00,VWS V14.00,2013-01-12 14:07:00,
2013-01-12 09:09:00,46.0,39.9,28.91,East,99,0.0,0.0,79,0.00,,OVC220,0.00,VWS V14.00,2013-01-12 14:09:00,
2013-01-12 09:10:00,46.2,40.1,28.91,ENE,71,0.0,0.0,79,0.00,,OVC220,0.00,VWS V14.00,2013-01-12 14:10:00,
2013-01-12 09:11:00,46.2,40.1,28.91,East,92,3.6,3.6,79,0.00,,OVC220,0.00,VWS V14.00,2013-01-12 14:11:00,
2013-01-12 09:12:00,46.2,40.1,28.91,East,101,2.7,2.7,79,0.00,,OVC220,0.00,VWS V14.00,2013-01-12 14:12:00,
2013-01-12 09:14:00,46.4,40.2,28.91,East,79,0.0,0.0,79,0.00,,OVC220,0.00,VWS V14.00,2013-01-12 14:14:00,
2013-01-12 09:15:00,46.4,40.2,28.91,NE,44,0.0,0.0,79,0.00,,OVC220,0.00,VWS V14.00,2013-01-12 14:15:00,
2013-01-12 09:16:00,46.4,40.2,28.91,NE,44,0.0,0.0,79,0.00,,OVC220,0.00,VWS V14.00,2013-01-12 14:16:00,
2013-01-12 09:17:00,46.4,40.2,28.91,NE,44,0.0,0.0,79,0.00,,OVC220,0.00,VWS V14.00,2013-01-12 14:17:00,
2013-01-12 09:19:00,46.4,40.2,28.91,ENE,72,0.0,0.0,79,0.00,,OVC220,0.00,VWS V14.00,2013-01-12 14:19:00,
2013-01-12 09:20:00,46.4,40.2,28.91,East,95,0.0,0.0,79,0.00,,OVC220,0.00,VWS V14.00,2013-01-12 14:20:00,
2013-01-12 09:21:00,46.6,40.4,28.91,NNE,28,0.0,0.0,79,0.00,,OVC220,0.00,VWS V14.00,2013-01-12 14:21:00,
2013-01-12 09:22:00,46.6,40.4,28.91,NNE,29,0.0,0.0,79,0.00,,OVC220,0.00,VWS V14.00,2013-01-12 14:22:00,
2013-01-12 09:24:00,46.6,40.4,28.91,NE,48,2.7,2.7,79,0.00,,OVC220,0.00,VWS V14.00,2013-01-12 14:24:00,
2013-01-12 09:25:00,46.6,40.4,28.91,NNW,341,0.0,0.0,79,0.00,,OVC220,0.00,VWS V14.00,2013-01-12 14:25:00,
2013-01-12 09:26:00,46.6,40.4,28.91,NNW,341,0.0,0.0,79,0.00,,OVC220,0.00,VWS V14.00,2013-01-12 14:26:00,
2013-01-12 09:27:00,46.8,40.6,28.91,East,80,0.0,0.0,79,0.00,,OVC220,0.00,VWS V14.00,2013-01-12 14:27:00,
2013-01-12 09:29:00,46.8,40.6,28.91,East,89,0.0,0.0,79,0.00,,OVC220,0.00,VWS V14.00,2013-01-12 14:29:00,
2013-01-12 09:30:00,46.8,40.6,28.91,East,89,0.0,0.0,79,0.00,,OVC220,0.00,VWS V14.00,2013-01-12 14:30:00,
2013-01-12 09:31:00,46.8,40.6,28.91,East,89,0.0,0.0,79,0.00,,OVC220,0.00,VWS V14.00,2013-01-12 14:31:00,
2013-01-12 09:32:00,46.9,40.8,28.91,NW,310,0.0,0.0,79,0.00,,OVC220,0.00,VWS V14.00,2013-01-12 14:32:00,
2013-01-12 09:34:00,46.9,40.8,28.91,ENE,75,0.0,0.0,79,0.00,,OVC220,0.00,VWS V14.00,2013-01-12 14:34:00,
2013-01-12 09:35:00,46.9,40.8,28.91,NE,37,4.0,4.0,79,0.00,,OVC220,0.00,VWS V14.00,2013-01-12 14:35:00,
2013-01-12 09:36:00,47.1,41.0,28.91,ENE,64,0.0,0.0,79,0.00,,OVC220,0.00,VWS V14.00,2013-01-12 14:36:00,
2013-01-12 09:37:00,47.1,41.0,28.91,ENE,64,0.0,0.0,79,0.00,,OVC220,0.00,VWS V14.00,2013-01-12 14:37:00,
2013-01-12 09:39:00,47.1,41.0,28.91,SE,146,0.0,0.0,79,0.00,,OVC220,0.00,VWS V14.00,2013-01-12 14:39:00,
2013-01-12 09:40:00,47.1,41.0,28.91,East,93,0.0,0.0,79,0.00,,OVC220,0.00,VWS V14.00,2013-01-12 14:40:00,
2013-01-12 09:41:00,47.1,41.0,28.91,East,86,2.2,2.2,79,0.00,,OVC220,0.00,VWS V14.00,2013-01-12 14:41:00,
2013-01-12 09:43:00,47.3,41.1,28.91,ENE,68,0.0,0.0,79,0.00,,OVC220,0.00,VWS V14.00,2013-01-12 14:43:00,
2013-01-12 09:44:00,47.3,41.1,28.91,ENE,76,0.0,0.0,79,0.00,,OVC220,0.00,VWS V14.00,2013-01-12 14:44:00,
2013-01-12 09:45:00,47.3,41.1,28.91,ENE,76,0.0,0.0,79,0.00,,OVC220,0.00,VWS V14.00,2013-01-12 14:45:00,
2013-01-12 09:46:00,47.3,41.1,28.91,East,86,0.0,0.0,79,0.00,,OVC220,0.00,VWS V14.00,2013-01-12 14:46:00,
2013-01-12 09:48:00,47.3,41.1,28.91,ENE,73,0.0,0.0,79,0.00,,OVC220,0.00,VWS V14.00,2013-01-12 14:48:00,
2013-01-12 09:49:00,47.3,41.1,28.91,ENE,73,0.0,0.0,79,0.00,,OVC220,0.00,VWS V14.00,2013-01-12 14:49:00,
2013-01-12 09:50:00,47.3,41.1,28.91,ENE,69,2.2,2.2,79,0.00,,OVC220,0.00,VWS V14.00,2013-01-12 14:50:00,
2013-01-12 09:52:00,47.3,41.1,28.91,SE,126,0.0,0.0,79,0.00,,OVC220,0.00,VWS V14.00,2013-01-12 14:52:00,
2013-01-12 09:53:00,47.5,41.3,28.91,SE,126,0.0,0.0,79,0.00,,OVC220,0.00,VWS V14.00,2013-01-12 14:53:00,
2013-01-12 09:55:00,47.5,41.3,28.91,NE,48,0.0,0.0,79,0.00,,OVC220,0.00,VWS V14.00,2013-01-12 14:55:00,
2013-01-12 09:56:00,47.5,41.3,28.91,NE,48,0.0,0.0,79,0.00,,OVC220,0.00,VWS V14.00,2013-01-12 14:56:00,
2013-01-12 09:57:00,47.5,41.3,28.91,ENE,58,0.0,0.0,79,0.00,,OVC220,0.00,VWS V14.00,2013-01-12 14:57:00,
2013-01-12 09:58:00,47.7,41.5,28.91,ENE,58,0.0,0.0,79,0.00,,OVC220,0.00,VWS V14.00,2013-01-12 14:58:00,
2013-01-12 10:00:00,47.7,41.5,28.91,ENE,58,0.0,0.0,79,0.00,,OVC220,0.00,VWS V14.00,2013-01-12 15:00:00,
2013-01-12 10:01:00,47.7,41.5,28.91,NNE,31,0.0,0.0,79,0.00,,OVC220,0.00,VWS V14.00,2013-01-12 15:01:00,
2013-01-12 10:02:00,47.7,41.5,28.91,NE,40,0.0,0.0,79,0.00,,OVC240,0.00,VWS V14.00,2013-01-12 15:02:00,
2013-01-12 10:03:00,47.8,41.7,28.91,NE,40,0.0,0.0,79,0.00,,OVC240,0.00,VWS V14.00,2013-01-12 15:03:00,
2013-01-12 10:05:00,48.0,41.8,28.91,ESE,104,0.0,0.0,79,0.00,,OVC240,0.00,VWS V14.00,2013-01-12 15:05:00,
2013-01-12 10:06:00,48.0,41.8,28.91,SSW,209,0.0,0.0,79,0.00,,OVC240,0.00,VWS V14.00,2013-01-12 15:06:00,
2013-01-12 10:07:00,48.2,42.0,28.91,NE,51,0.0,0.0,79,0.00,,OVC240,0.00,VWS V14.00,2013-01-12 15:07:00,
2013-01-12 10:08:00,48.2,42.0,28.91,East,82,0.0,0.0,79,0.00,,OVC240,0.00,VWS V14.00,2013-01-12 15:08:00,
2013-01-12 10:10:00,48.2,41.7,28.91,East,82,0.0,0.0,78,0.00,,OVC240,0.00,VWS V14.00,2013-01-12 15:10:00,
2013-01-12 10:11:00,48.4,41.8,28.91,East,82,0.0,0.0,78,0.00,,OVC240,0.00,VWS V14.00,2013-01-12 15:11:00,
2013-01-12 10:12:00,48.4,41.8,28.91,East,82,0.0,0.0,78,0.00,,OVC240,0.00,VWS V14.00,2013-01-12 15:12:00,
2013-01-12 10:13:00,48.6,42.0,28.91,East,82,0.0,0.0,78,0.00,,OVC240,0.00,VWS V14.00,2013-01-12 15:13:00,
2013-01-12 10:15:00,48.6,42.0,28.91,NE,47,0.0,0.0,78,0.00,,OVC240,0.00,VWS V14.00,2013-01-12 15:15:00,
2013-01-12 10:16:00,48.7,42.2,28.91,SSE,147,0.0,0.0,78,0.00,,OVC240,0.00,VWS V14.00,2013-01-12 15:16:00,
2013-01-12 10:17:00,48.7,42.2,28.91,NW,316,0.0,0.0,78,0.00,,OVC240,0.00,VWS V14.00,2013-01-12 15:17:00,
2013-01-12 10:18:00,48.7,42.2,28.91,ENE,76,2.7,2.7,78,0.00,,OVC240,0.00,VWS V14.00,2013-01-12 15:18:00,
2013-01-12 10:20:00,48.9,42.4,28.91,ENE,57,0.0,0.0,78,0.00,,OVC240,0.00,VWS V14.00,2013-01-12 15:20:00,
2013-01-12 10:21:00,48.9,42.4,28.91,ENE,73,0.0,0.0,78,0.00,,OVC240,0.00,VWS V14.00,2013-01-12 15:21:00,
2013-01-12 10:22:00,49.1,42.5,28.91,ENE,72,0.0,0.0,78,0.00,,OVC240,0.00,VWS V14.00,2013-01-12 15:22:00,
2013-01-12 10:23:00,49.1,42.5,28.91,SSE,152,0.0,0.0,78,0.00,,OVC240,0.00,VWS V14.00,2013-01-12 15:23:00,
2013-01-12 10:25:00,49.1,42.5,28.91,ENE,76,0.0,0.0,78,0.00,,OVC240,0.00,VWS V14.00,2013-01-12 15:25:00,
2013-01-12 10:26:00,49.3,42.7,28.91,ESE,112,0.0,0.0,78,0.00,,OVC240,0.00,VWS V14.00,2013-01-12 15:26:00,
2013-01-12 10:28:00,49.3,42.7,28.91,West,265,0.0,0.0,78,0.00,,OVC240,0.00,VWS V14.00,2013-01-12 15:28:00,
2013-01-12 10:29:00,49.3,42.7,28.91,East,89,0.0,0.0,78,0.00,,OVC240,0.00,VWS V14.00,2013-01-12 15:29:00,
2013-01-12 10:30:00,49.5,42.9,28.91,East,90,0.0,0.0,78,0.00,,OVC240,0.00,VWS V14.00,2013-01-12 15:30:00,
2013-01-12 10:31:00,49.5,42.9,28.91,East,87,0.0,0.0,78,0.00,,OVC240,0.00,VWS V14.00,2013-01-12 15:31:00,
2013-01-12 10:33:00,49.5,42.9,28.91,East,89,0.0,0.0,78,0.00,,OVC240,0.00,VWS V14.00,2013-01-12 15:33:00,
2013-01-12 10:34:00,49.5,42.9,28.91,East,90,0.0,0.0,78,0.00,,OVC240,0.00,VWS V14.00,2013-01-12 15:34:00,
2013-01-12 10:35:00,49.6,43.1,28.91,ENE,63,0.0,0.0,78,0.00,,OVC240,0.00,VWS V14.00,2013-01-12 15:35:00,
2013-01-12 10:36:00,49.6,43.1,28.91,SE,139,0.0,0.0,78,0.00,,OVC240,0.00,VWS V14.00,2013-01-12 15:36:00,
2013-01-12 10:38:00,49.6,42.7,28.91,South,183,0.0,0.0,77,0.00,,OVC240,0.00,VWS V14.00,2013-01-12 15:38:00,
2013-01-12 10:39:00,49.6,42.7,28.91,South,182,0.0,0.0,77,0.00,,OVC240,0.00,VWS V14.00,2013-01-12 15:39:00,
2013-01-12 10:40:00,49.8,42.9,28.91,East,80,0.0,0.0,77,0.00,,OVC240,0.00,VWS V14.00,2013-01-12 15:40:00,
2013-01-12 10:41:00,49.8,42.9,28.91,East,86,0.0,0.0,77,0.00,,OVC240,0.00,VWS V14.00,2013-01-12 15:41:00,
2013-01-12 10:43:00,49.8,42.9,28.91,East,92,0.0,0.0,77,0.00,,OVC240,0.00,VWS V14.00,2013-01-12 15:43:00,
2013-01-12 10:44:00,49.8,42.9,28.91,East,80,0.0,0.0,77,0.00,,OVC240,0.00,VWS V14.00,2013-01-12 15:44:00,
2013-01-12 10:45:00,49.8,42.9,28.91,East,79,0.0,0.0,77,0.00,,OVC240,0.00,VWS V14.00,2013-01-12 15:45:00,
2013-01-12 10:46:00,50.0,42.7,28.91,WNW,303,0.0,0.0,76,0.00,,OVC240,0.00,VWS V14.00,2013-01-12 15:46:00,
2013-01-12 10:48:00,50.0,42.7,28.91,ENE,74,0.0,0.0,76,0.00,,OVC240,0.00,VWS V14.00,2013-01-12 15:48:00,
2013-01-12 10:49:00,50.0,42.7,28.91,East,100,0.0,0.0,76,0.00,,OVC240,0.00,VWS V14.00,2013-01-12 15:49:00,
2013-01-12 10:51:00,50.0,42.7,28.91,East,100,0.0,0.0,76,0.00,,OVC240,0.00,VWS V14.00,2013-01-12 15:51:00,
2013-01-12 10:53:00,50.2,42.9,28.91,ENE,78,0.0,0.0,76,0.00,,OVC240,0.00,VWS V14.00,2013-01-12 15:53:00,
2013-01-12 10:54:00,50.2,42.9,28.91,East,98,0.0,0.0,76,0.00,,OVC240,0.00,VWS V14.00,2013-01-12 15:54:00,
2013-01-12 10:56:00,50.2,42.9,28.94,East,87,0.0,0.0,76,0.00,,OVC240,0.00,VWS V14.00,2013-01-12 15:56:00,
2013-01-12 10:58:00,50.4,43.1,28.94,South,183,0.0,0.0,76,0.00,,OVC240,0.00,VWS V14.00,2013-01-12 15:58:00,
2013-01-12 10:59:00,50.4,42.8,28.94,East,100,0.0,0.0,75,0.00,,OVC240,0.00,VWS V14.00,2013-01-12 15:59:00,
2013-01-12 11:01:00,50.4,42.8,28.94,East,88,0.0,0.0,75,0.00,,OVC240,0.00,VWS V14.00,2013-01-12 16:01:00,
2013-01-12 11:03:00,50.5,42.9,28.94,ESE,121,0.0,0.0,75,0.00,,OVC200,0.00,VWS V14.00,2013-01-12 16:03:00,
2013-01-12 11:05:00,50.5,42.9,28.94,ESE,120,0.0,0.0,75,0.00,,OVC200,0.00,VWS V14.00,2013-01-12 16:05:00,
2013-01-12 11:06:00,50.7,43.1,28.94,East,97,0.0,0.0,75,0.00,,OVC200,0.00,VWS V14.00,2013-01-12 16:06:00,
2013-01-12 11:08:00,50.7,43.1,28.94,East,93,0.0,0.0,75,0.00,,OVC200,0.00,VWS V14.00,2013-01-12 16:08:00,
2013-01-12 11:10:00,50.7,42.8,28.94,ENE,74,2.7,2.7,74,0.00,,OVC200,0.00,VWS V14.00,2013-01-12 16:10:00,
2013-01-12 11:11:00,50.7,42.8,28.91,ENE,66,0.0,0.0,74,0.00,,OVC200,0.00,VWS V14.00,2013-01-12 16:11:00,
2013-01-12 11:12:00,50.7,42.8,28.91,ENE,66,0.0,0.0,74,0.00,,OVC200,0.00,VWS V14.00,2013-01-12 16:12:00,
2013-01-12 11:13:00,50.7,42.8,28.91,ENE,67,0.0,0.0,74,0.00,,OVC200,0.00,VWS V14.00,2013-01-12 16:13:00,
2013-01-12 11:15:00,50.9,42.9,28.91,ENE,68,0.0,0.0,74,0.00,,OVC200,0.00,VWS V14.00,2013-01-12 16:15:00,
2013-01-12 11:16:00,50.9,42.9,28.91,ENE,68,0.0,0.0,74,0.00,,OVC200,0.00,VWS V14.00,2013-01-12 16:16:00,
2013-01-12 11:17:00,50.9,42.6,28.91,ENE,59,0.0,0.0,73,0.00,,OVC200,0.00,VWS V14.00,2013-01-12 16:17:00,
2013-01-12 11:18:00,50.9,42.6,28.91,ENE,72,0.0,0.0,73,0.00,,OVC200,0.00,VWS V14.00,2013-01-12 16:18:00,
2013-01-12 11:20:00,51.1,42.7,28.91,East,99,0.0,0.0,73,0.00,,OVC200,0.00,VWS V14.00,2013-01-12 16:20:00,
2013-01-12 11:21:00,51.1,42.7,28.91,WNW,290,0.0,0.0,73,0.00,,OVC200,0.00,VWS V14.00,2013-01-12 16:21:00,
2013-01-12 11:22:00,51.1,42.7,28.91,NW,316,0.0,0.0,73,0.00,,OVC200,0.00,VWS V14.00,2013-01-12 16:22:00,
2013-01-12 11:23:00,51.3,42.5,28.91,West,265,0.0,0.0,72,0.00,,OVC200,0.00,VWS V14.00,2013-01-12 16:23:00,
2013-01-12 11:25:00,51.3,42.5,28.91,West,265,0.0,0.0,72,0.00,,OVC200,0.00,VWS V14.00,2013-01-12 16:25:00,
2013-01-12 11:26:00,51.3,42.5,28.91,East,79,0.0,0.0,72,0.00,,OVC200,0.00,VWS V14.00,2013-01-12 16:26:00,
2013-01-12 11:27:00,51.4,42.7,28.91,East,91,2.7,2.7,72,0.00,,OVC200,0.00,VWS V14.00,2013-01-12 16:27:00,
2013-01-12 11:28:00,51.4,42.4,28.91,ENE,60,0.0,0.0,71,0.00,,OVC200,0.00,VWS V14.00,2013-01-12 16:28:00,
2013-01-12 11:30:00,51.4,42.4,28.91,ENE,61,0.0,0.0,71,0.00,,OVC200,0.00,VWS V14.00,2013-01-12 16:30:00,
2013-01-12 11:31:00,51.6,42.2,28.91,East,96,0.0,0.0,70,0.00,,OVC200,0.00,VWS V14.00,2013-01-12 16:31:00,
2013-01-12 11:32:00,51.6,42.2,28.91,ENE,75,2.7,2.7,70,0.00,,OVC200,0.00,VWS V14.00,2013-01-12 16:32:00,
2013-01-12 11:34:00,51.6,41.8,28.91,East,98,0.0,0.0,69,0.00,,OVC200,0.00,VWS V14.00,2013-01-12 16:34:00,
2013-01-12 11:35:00,51.8,41.6,28.91,East,91,2.7,2.7,68,0.00,,OVC200,0.00,VWS V14.00,2013-01-12 16:35:00,
2013-01-12 11:36:00,51.8,41.2,28.91,East,82,0.0,0.0,67,0.00,,OVC200,0.00,VWS V14.00,2013-01-12 16:36:00,
2013-01-12 11:37:00,51.8,41.2,28.91,East,82,0.0,0.0,67,0.00,,OVC200,0.00,VWS V14.00,2013-01-12 16:37:00,
2013-01-12 11:39:00,52.0,41.4,28.91,East,84,0.0,0.0,67,0.00,,OVC200,0.00,VWS V14.00,2013-01-12 16:39:00,
2013-01-12 11:40:00,52.2,40.8,28.91,East,80,0.0,0.0,65,0.00,,OVC200,0.00,VWS V14.00,2013-01-12 16:40:00,
2013-01-12 11:41:00,52.2,40.8,28.91,SE,139,0.0,0.0,65,0.00,,OVC200,0.00,VWS V14.00,2013-01-12 16:41:00,
2013-01-12 11:42:00,52.2,40.4,28.91,ENE,59,2.7,2.7,64,0.00,,OVC200,0.00,VWS V14.00,2013-01-12 16:42:00,
2013-01-12 11:44:00,52.3,40.1,28.91,ENE,77,3.1,3.1,63,0.00,,OVC200,0.00,VWS V14.00,2013-01-12 16:44:00,
2013-01-12 11:45:00,52.3,39.7,28.91,ENE,59,0.0,0.0,62,0.00,,OVC200,0.00,VWS V14.00,2013-01-12 16:45:00,
2013-01-12 11:46:00,52.3,39.3,28.91,East,92,0.0,0.0,61,0.00,,OVC200,0.00,VWS V14.00,2013-01-12 16:46:00,
2013-01-12 11:47:00,52.5,39.5,28.91,East,92,0.0,0.0,61,0.00,,OVC200,0.00,VWS V14.00,2013-01-12 16:47:00,
2013-01-12 11:49:00,52.5,39.0,28.91,East,79,0.0,0.0,60,0.00,,OVC200,0.00,VWS V14.00,2013-01-12 16:49:00,
2013-01-12 11:50:00,52.5,38.6,28.91,ENE,61,0.0,0.0,59,0.00,,OVC200,0.00,VWS V14.00,2013-01-12 16:50:00,
2013-01-12 11:51:00,52.7,38.3,28.91,ENE,72,0.0,0.0,58,0.00,,OVC200,0.00,VWS V14.00,2013-01-12 16:51:00,
2013-01-12 11:52:00,52.7,38.3,28.91,ENE,72,0.0,0.0,58,0.00,,OVC200,0.00,VWS V14.00,2013-01-12 16:52:00,
2013-01-12 11:54:00,52.7,37.9,28.91,ENE,72,0.0,0.0,57,0.00,,OVC200,0.00,VWS V14.00,2013-01-12 16:54:00,
2013-01-12 11:56:00,52.9,38.1,28.91,ENE,72,0.0,0.0,57,0.00,,OVC200,0.00,VWS V14.00,2013-01-12 16:56:00,
2013-01-12 11:57:00,52.9,37.6,28.91,ENE,72,0.0,0.0,56,0.00,,OVC200,0.00,VWS V14.00,2013-01-12 16:57:00,
2013-01-12 11:59:00,52.9,37.2,28.91,East,88,0.0,0.0,55,0.00,,OVC200,0.00,VWS V14.00,2013-01-12 16:59:00,
2013-01-12 12:01:00,52.9,37.2,28.91,ENE,74,4.9,4.9,55,0.00,,OVC200,0.00,VWS V14.00,2013-01-12 17:01:00,
2013-01-12 12:02:00,52.9,36.7,28.91,ENE,73,0.0,0.0,54,0.00,,OVC190,0.00,VWS V14.00,2013-01-12 17:02:00,
2013-01-12 12:04:00,53.1,36.9,28.91,ESE,106,0.0,0.0,54,0.00,,OVC190,0.00,VWS V14.00,2013-01-12 17:04:00,
2013-01-12 12:06:00,53.1,36.4,28.91,ESE,108,0.0,0.0,53,0.00,,OVC190,0.00,VWS V14.00,2013-01-12 17:06:00,
2013-01-12 12:07:00,53.2,36.6,28.91,East,98,0.0,0.0,53,0.00,,OVC190,0.00,VWS V14.00,2013-01-12 17:07:00,
2013-01-12 12:09:00,53.2,36.6,28.91,ESE,103,0.0,0.0,53,0.00,,OVC190,0.00,VWS V14.00,2013-01-12 17:09:00,
2013-01-12 12:11:00,53.4,36.2,28.88,ESE,103,0.0,0.0,52,0.00,,OVC190,0.00,VWS V14.00,2013-01-12 17:11:00,
2013-01-12 12:12:00,53.4,36.2,28.88,ENE,60,0.0,0.0,52,0.00,,OVC190,0.00,VWS V14.00,2013-01-12 17:12:00,
2013-01-12 12:13:00,53.6,36.4,28.88,ENE,60,0.0,0.0,52,0.00,,OVC190,0.00,VWS V14.00,2013-01-12 17:13:00,
2013-01-12 12:14:00,53.6,35.9,28.88,NNE,20,0.0,0.0,51,0.00,,OVC190,0.00,VWS V14.00,2013-01-12 17:14:00,
2013-01-12 12:16:00,53.8,36.1,28.88,ENE,69,0.0,0.0,51,0.00,,OVC190,0.00,VWS V14.00,2013-01-12 17:16:00,
2013-01-12 12:18:00,53.8,36.1,28.88,East,96,0.0,0.0,51,0.00,,OVC190,0.00,VWS V14.00,2013-01-12 17:18:00,
2013-01-12 12:19:00,53.8,36.1,28.88,ENE,60,0.0,0.0,51,0.00,,OVC190,0.00,VWS V14.00,2013-01-12 17:19:00,
2013-01-12 12:21:00,54.0,35.8,28.88,ENE,71,2.7,2.7,50,0.00,,OVC190,0.00,VWS V14.00,2013-01-12 17:21:00,
2013-01-12 12:23:00,54.1,35.9,28.88,East,83,0.0,0.0,50,0.00,,OVC190,0.00,VWS V14.00,2013-01-12 17:23:00,
2013-01-12 12:24:00,54.1,35.4,28.88,East,83,0.0,0.0,49,0.00,,OVC190,0.00,VWS V14.00,2013-01-12 17:24:00,
2013-01-12 12:26:00,54.3,35.6,28.88,East,85,0.0,0.0,49,0.00,,OVC190,0.00,VWS V14.00,2013-01-12 17:26:00,
2013-01-12 12:28:00,54.3,35.6,28.88,East,91,0.0,0.0,49,0.00,,OVC190,0.00,VWS V14.00,2013-01-12 17:28:00,
2013-01-12 12:29:00,54.5,35.8,28.88,East,91,0.0,0.0,49,0.00,,OVC190,0.00,VWS V14.00,2013-01-12 17:29:00,
2013-01-12 12:31:00,54.7,35.9,28.88,East,94,0.0,0.0,49,0.00,,OVC190,0.00,VWS V14.00,2013-01-12 17:31:00,
2013-01-12 12:33:00,54.7,35.4,28.88,ENE,64,0.0,0.0,48,0.00,,OVC190,0.00,VWS V14.00,2013-01-12 17:33:00,
2013-01-12 12:35:00,54.9,35.6,28.88,East,96,0.0,0.0,48,0.00,,OVC190,0.00,VWS V14.00,2013-01-12 17:35:00,
2013-01-12 12:36:00,54.9,35.0,28.88,East,97,0.0,0.0,47,0.00,,OVC190,0.00,VWS V14.00,2013-01-12 17:36:00,
2013-01-12 12:38:00,55.0,35.2,28.88,ENE,63,0.0,0.0,47,0.00,,OVC190,0.00,VWS V14.00,2013-01-12 17:38:00,
2013-01-12 12:39:00,55.0,35.2,28.88,East,85,0.0,0.0,47,0.00,,OVC190,0.00,VWS V14.00,2013-01-12 17:39:00,
2013-01-12 12:40:00,55.2,35.4,28.88,East,85,0.0,0.0,47,0.00,,OVC190,0.00,VWS V14.00,2013-01-12 17:40:00,
2013-01-12 12:41:00,55.2,35.4,28.88,East,85,0.0,0.0,47,0.00,,OVC190,0.00,VWS V14.00,2013-01-12 17:41:00,
2013-01-12 12:43:00,55.4,35.0,28.88,East,83,0.0,0.0,46,0.00,,OVC190,0.00,VWS V14.00,2013-01-12 17:43:00,
2013-01-12 12:44:00,55.6,35.2,28.88,ENE,77,0.0,0.0,46,0.00,,OVC190,0.00,VWS V14.00,2013-01-12 17:44:00,
2013-01-12 12:45:00,55.6,35.2,28.88,East,87,0.0,0.0,46,0.00,,OVC190,0.00,VWS V14.00,2013-01-12 17:45:00,
2013-01-12 12:46:00,55.6,35.2,28.88,NE,38,0.0,0.0,46,0.00,,OVC190,0.00,VWS V14.00,2013-01-12 17:46:00,
2013-01-12 12:48:00,55.8,34.8,28.88,East,79,0.0,0.0,45,0.00,,OVC190,0.00,VWS V14.00,2013-01-12 17:48:00,
2013-01-12 12:49:00,55.8,34.8,28.88,East,100,2.7,2.7,45,0.00,,OVC190,0.00,VWS V14.00,2013-01-12 17:49:00,
2013-01-12 12:50:00,55.8,34.8,28.88,ENE,70,0.0,0.0,45,0.00,,OVC190,0.00,VWS V14.00,2013-01-12 17:50:00,
2013-01-12 12:51:00,55.9,34.4,28.88,NE,55,2.2,2.2,44,0.00,,OVC190,0.00,VWS V14.00,2013-01-12 17:51:00,
2013-01-12 12:53:00,55.9,34.4,28.88,East,93,3.1,3.1,44,0.00,,OVC190,0.00,VWS V14.00,2013-01-12 17:53:00,
2013-01-12 12:54:00,55.9,34.4,28.88,NE,37,4.0,4.0,44,0.00,,OVC190,0.00,VWS V14.00,2013-01-12 17:54:00,
2013-01-12 12:55:00,55.9,33.8,28.88,ESE,102,3.6,3.6,43,0.00,,OVC190,0.00,VWS V14.00,2013-01-12 17:55:00,
2013-01-12 12:56:00,55.9,33.8,28.88,ENE,57,2.7,2.7,43,0.00,,OVC190,0.00,VWS V14.00,2013-01-12 17:56:00,
2013-01-12 12:58:00,55.9,33.8,28.88,ENE,74,0.0,0.0,43,0.00,,OVC190,0.00,VWS V14.00,2013-01-12 17:58:00,
2013-01-12 12:59:00,56.1,34.0,28.88,East,82,3.6,3.6,43,0.00,,OVC190,0.00,VWS V14.00,2013-01-12 17:59:00,
2013-01-12 13:00:00,56.1,34.0,28.88,NE,50,2.7,2.7,43,0.00,,OVC190,0.00,VWS V14.00,2013-01-12 18:00:00,
2013-01-12 13:01:00,56.1,34.0,28.88,East,93,2.7,2.7,43,0.00,,OVC200,0.00,VWS V14.00,2013-01-12 18:01:00,
2013-01-12 13:03:00,56.1,33.4,28.88,ENE,78,0.0,0.0,42,0.00,,OVC200,0.00,VWS V14.00,2013-01-12 18:03:00,
2013-01-12 13:04:00,56.1,33.4,28.88,SSW,196,0.0,0.0,42,0.00,,OVC200,0.00,VWS V14.00,2013-01-12 18:04:00,
2013-01-12 13:05:00,56.3,33.5,28.88,South,172,0.0,0.0,42,0.00,,OVC200,0.00,VWS V14.00,2013-01-12 18:05:00,
2013-01-12 13:07:00,56.3,33.5,28.88,East,94,0.0,0.0,42,0.00,,OVC200,0.00,VWS V14.00,2013-01-12 18:07:00,
2013-01-12 13:08:00,56.3,33.5,28.88,NNW,335,0.0,0.0,42,0.00,,OVC200,0.00,VWS V14.00,2013-01-12 18:08:00,
2013-01-12 13:09:00,56.3,33.5,28.88,ENE,77,0.0,0.0,42,0.00,,OVC200,0.00,VWS V14.00,2013-01-12 18:09:00,
2013-01-12 13:11:00,56.3,33.5,28.88,ENE,72,2.7,2.7,42,0.00,,OVC200,0.00,VWS V14.00,2013-01-12 18:11:00,
2013-01-12 13:12:00,56.5,33.7,28.88,SE,137,4.0,4.0,42,0.00,,OVC200,0.00,VWS V14.00,2013-01-12 18:12:00,
2013-01-12 13:13:00,56.5,33.1,28.88,East,82,2.7,2.7,41,0.00,,OVC200,0.00,VWS V14.00,2013-01-12 18:13:00,
2013-01-12 13:14:00,56.5,33.1,28.88,ESE,106,0.0,0.0,41,0.00,,OVC200,0.00,VWS V14.00,2013-01-12 18:14:00,
2013-01-12 13:16:00,56.5,33.1,28.88,East,89,2.7,2.7,41,0.00,,OVC200,0.00,VWS V14.00,2013-01-12 18:16:00,
2013-01-12 13:17:00,56.5,33.1,28.88,SSW,200,3.6,3.6,41,0.00,,OVC200,0.00,VWS V14.00,2013-01-12 18:17:00,
2013-01-12 13:18:00,56.7,33.2,28.88,NW,306,0.0,0.0,41,0.00,,OVC200,0.00,VWS V14.00,2013-01-12 18:18:00,
2013-01-12 13:20:00,56.7,33.2,28.88,East,101,0.0,0.0,41,0.00,,OVC200,0.00,VWS V14.00,2013-01-12 18:20:00,
2013-01-12 13:21:00,56.7,33.2,28.88,ENE,71,3.1,3.1,41,0.00,,OVC200,0.00,VWS V14.00,2013-01-12 18:21:00,
2013-01-12 13:22:00,56.7,33.2,28.88,East,79,0.0,0.0,41,0.00,,OVC200,0.00,VWS V14.00,2013-01-12 18:22:00,
2013-01-12 13:23:00,56.8,33.4,28.88,West,272,2.2,2.2,41,0.00,,OVC200,0.00,VWS V14.00,2013-01-12 18:23:00,
2013-01-12 13:25:00,56.8,33.4,28.88,East,93,3.6,3.6,41,0.00,,OVC200,0.00,VWS V14.00,2013-01-12 18:25:00,
2013-01-12 13:26:00,56.8,33.4,28.88,SE,127,2.2,2.2,41,0.00,,OVC200,0.00,VWS V14.00,2013-01-12 18:26:00,
2013-01-12 13:27:00,56.8,32.8,28.88,SSE,163,0.0,0.0,40,0.00,,OVC200,0.00,VWS V14.00,2013-01-12 18:27:00,
2013-01-12 13:28:00,56.8,32.8,28.88,East,84,0.0,0.0,40,0.00,,OVC200,0.00,VWS V14.00,2013-01-12 18:28:00,
2013-01-12 13:30:00,56.8,32.8,28.88,East,89,2.2,2.2,40,0.00,,OVC200,0.00,VWS V14.00,2013-01-12 18:30:00,
2013-01-12 13:31:00,56.8,32.8,28.88,East,90,0.0,0.0,40,0.00,,OVC200,0.00,VWS V14.00,2013-01-12 18:31:00,
2013-01-12 13:32:00,56.8,32.8,28.88,East,80,3.1,3.1,40,0.00,,OVC200,0.00,VWS V14.00,2013-01-12 18:32:00,
2013-01-12 13:33:00,56.8,32.8,28.88,ENE,76,0.0,0.0,40,0.00,,OVC200,0.00,VWS V14.00,2013-01-12 18:33:00,
2013-01-12 13:35:00,56.8,32.8,28.88,East,90,0.0,0.0,40,0.00,,OVC200,0.00,VWS V14.00,2013-01-12 18:35:00,
2013-01-12 13:36:00,56.8,32.8,28.88,East,89,0.0,0.0,40,0.00,,OVC200,0.00,VWS V14.00,2013-01-12 18:36:00,
2013-01-12 13:38:00,56.8,32.8,28.88,ENE,72,0.0,0.0,40,0.00,,OVC200,0.00,VWS V14.00,2013-01-12 18:38:00,
2013-01-12 13:40:00,56.8,32.2,28.88,East,92,2.7,2.7,39,0.00,,OVC200,0.00,VWS V14.00,2013-01-12 18:40:00,
2013-01-12 13:41:00,56.8,32.2,28.88,East,79,0.0,0.0,39,0.00,,OVC200,0.00,VWS V14.00,2013-01-12 18:41:00,
2013-01-12 13:43:00,56.8,32.2,28.88,East,79,0.0,0.0,39,0.00,,OVC200,0.00,VWS V14.00,2013-01-12 18:43:00,
2013-01-12 13:44:00,56.8,32.2,28.88,ENE,66,0.0,0.0,39,0.00,,OVC200,0.00,VWS V14.00,2013-01-12 18:44:00,
2013-01-12 13:46:00,56.8,32.2,28.88,ENE,71,0.0,0.0,39,0.00,,OVC200,0.00,VWS V14.00,2013-01-12 18:46:00,
2013-01-12 13:48:00,56.8,32.2,28.88,East,83,0.0,0.0,39,0.00,,OVC200,0.00,VWS V14.00,2013-01-12 18:48:00,
2013-01-12 13:49:00,56.8,32.2,28.88,East,83,0.0,0.0,39,0.00,,OVC200,0.00,VWS V14.00,2013-01-12 18:49:00,
2013-01-12 13:51:00,57.0,33.0,28.88,ESE,119,0.0,0.0,40,0.00,,OVC200,0.00,VWS V14.00,2013-01-12 18:51:00,
2013-01-12 13:53:00,57.0,32.3,28.88,ESE,119,0.0,0.0,39,0.00,,OVC200,0.00,VWS V14.00,2013-01-12 18:53:00,
2013-01-12 13:54:00,57.0,32.3,28.88,ESE,119,0.0,0.0,39,0.00,,OVC200,0.00,VWS V14.00,2013-01-12 18:54:00,
2013-01-12 13:56:00,57.0,32.3,28.88,East,79,0.0,0.0,39,0.00,,OVC200,0.00,VWS V14.00,2013-01-12 18:56:00,
2013-01-12 13:59:00,57.0,32.3,28.88,ESE,104,0.0,0.0,39,0.00,,OVC200,0.00,VWS V14.00,2013-01-12 18:59:00,
2013-01-12 14:01:00,57.0,32.3,28.88,ESE,104,0.0,0.0,39,0.00,,BKN240,0.00,VWS V14.00,2013-01-12 19:01:00,
2013-01-12 14:02:00,57.0,32.3,28.88,ESE,104,0.0,0.0,39,0.00,,BKN240,0.00,VWS V14.00,2013-01-12 19:02:00,
2013-01-12 14:04:00,57.0,32.3,28.88,ESE,104,0.0,0.0,39,0.00,,BKN240,0.00,VWS V14.00,2013-01-12 19:04:00,
2013-01-12 14:06:00,57.0,32.3,28.88,ENE,78,2.7,2.7,39,0.00,,BKN240,0.00,VWS V14.00,2013-01-12 19:06:00,
2013-01-12 14:07:00,57.0,32.3,28.88,ENE,78,2.7,2.7,39,0.00,,BKN240,0.00,VWS V14.00,2013-01-12 19:07:00,
2013-01-12 14:09:00,57.0,32.3,28.88,East,98,0.0,0.0,39,0.00,,BKN240,0.00,VWS V14.00,2013-01-12 19:09:00,
2013-01-12 14:12:00,57.0,32.3,28.88,ESE,109,2.7,2.7,39,0.00,,BKN240,0.00,VWS V14.00,2013-01-12 19:12:00,
2013-01-12 14:14:00,57.0,32.3,28.88,ESE,105,0.0,0.0,39,0.00,,BKN240,0.00,VWS V14.00,2013-01-12 19:14:00,
2013-01-12 14:17:00,57.0,32.3,28.88,East,90,0.0,0.0,39,0.00,,BKN240,0.00,VWS V14.00,2013-01-12 19:17:00,
2013-01-12 14:19:00,57.0,32.3,28.88,East,101,0.0,0.0,39,0.00,,BKN240,0.00,VWS V14.00,2013-01-12 19:19:00,
2013-01-12 14:20:00,57.0,32.3,28.88,ENE,76,2.7,2.7,39,0.00,,BKN240,0.00,VWS V14.00,2013-01-12 19:20:00,
2013-01-12 14:22:00,57.0,32.3,28.88,East,81,3.6,3.6,39,0.00,,BKN240,0.00,VWS V14.00,2013-01-12 19:22:00,
2013-01-12 14:23:00,57.0,32.3,28.88,East,87,0.0,0.0,39,0.00,,BKN240,0.00,VWS V14.00,2013-01-12 19:23:00,
2013-01-12 14:24:00,57.0,32.3,28.88,NNE,20,0.0,0.0,39,0.00,,BKN240,0.00,VWS V14.00,2013-01-12 19:24:00,
2013-01-12 14:25:00,57.0,32.3,28.88,NNE,20,0.0,0.0,39,0.00,,BKN240,0.00,VWS V14.00,2013-01-12 19:25:00,
2013-01-12 14:27:00,57.0,32.3,28.91,West,259,0.0,0.0,39,0.00,,BKN240,0.00,VWS V14.00,2013-01-12 19:27:00,
2013-01-12 14:28:00,57.2,32.5,28.91,West,259,0.0,0.0,39,0.00,,BKN240,0.00,VWS V14.00,2013-01-12 19:28:00,
2013-01-12 14:29:00,57.2,32.5,28.91,WSW,250,3.1,3.1,39,0.00,,BKN240,0.00,VWS V14.00,2013-01-12 19:29:00,
2013-01-12 14:30:00,57.2,32.5,28.91,ESE,102,2.7,2.7,39,0.00,,BKN240,0.00,VWS V14.00,2013-01-12 19:30:00,
2013-01-12 14:32:00,57.2,32.5,28.91,ESE,105,2.2,2.2,39,0.00,,BKN240,0.00,VWS V14.00,2013-01-12 19:32:00,
2013-01-12 14:33:00,57.2,32.5,28.91,East,90,0.0,0.0,39,0.00,,BKN240,0.00,VWS V14.00,2013-01-12 19:33:00,
2013-01-12 14:34:00,57.4,32.7,28.91,NNE,17,0.0,0.0,39,0.00,,BKN240,0.00,VWS V14.00,2013-01-12 19:34:00,
2013-01-12 14:35:00,57.4,32.7,28.91,NW,307,0.0,0.0,39,0.00,,BKN240,0.00,VWS V14.00,2013-01-12 19:35:00,
2013-01-12 14:37:00,57.4,32.7,28.91,ENE,63,0.0,0.0,39,0.00,,BKN240,0.00,VWS V14.00,2013-01-12 19:37:00,
2013-01-12 14:38:00,57.4,32.7,28.91,ENE,68,0.0,0.0,39,0.00,,BKN240,0.00,VWS V14.00,2013-01-12 19:38:00,
2013-01-12 14:39:00,57.4,32.7,28.91,East,100,0.0,0.0,39,0.00,,BKN240,0.00,VWS V14.00,2013-01-12 19:39:00,
2013-01-12 14:40:00,57.6,32.8,28.91,East,97,2.7,2.7,39,0.00,,BKN240,0.00,VWS V14.00,2013-01-12 19:40:00,
2013-01-12 14:42:00,57.6,32.8,28.91,East,96,3.6,3.6,39,0.00,,BKN240,0.00,VWS V14.00,2013-01-12 19:42:00,
2013-01-12 14:43:00,57.6,32.8,28.91,East,84,0.0,0.0,39,0.00,,BKN240,0.00,VWS V14.00,2013-01-12 19:43:00,
2013-01-12 14:44:00,57.6,32.8,28.91,East,84,0.0,0.0,39,0.00,,BKN240,0.00,VWS V14.00,2013-01-12 19:44:00,
2013-01-12 14:45:00,57.6,32.8,28.91,East,84,0.0,0.0,39,0.00,,BKN240,0.00,VWS V14.00,2013-01-12 19:45:00,
2013-01-12 14:47:00,57.6,32.8,28.91,ESE,113,0.0,0.0,39,0.00,,BKN240,0.00,VWS V14.00,2013-01-12 19:47:00,
2013-01-12 14:48:00,57.6,32.8,28.91,NW,312,0.0,0.0,39,0.00,,BKN240,0.00,VWS V14.00,2013-01-12 19:48:00,
2013-01-12 14:49:00,57.6,32.8,28.91,ESE,109,0.0,0.0,39,0.00,,BKN240,0.00,VWS V14.00,2013-01-12 19:49:00,
2013-01-12 14:50:00,57.6,32.8,28.91,SW,231,0.0,0.0,39,0.00,,BKN240,0.00,VWS V14.00,2013-01-12 19:50:00,
2013-01-12 14:52:00,57.6,32.8,28.91,ENE,68,0.0,0.0,39,0.00,,BKN240,0.00,VWS V14.00,2013-01-12 19:52:00,
2013-01-12 14:53:00,57.7,33.0,28.91,East,91,2.2,2.2,39,0.00,,BKN240,0.00,VWS V14.00,2013-01-12 19:53:00,
2013-01-12 14:54:00,57.7,33.0,28.91,East,83,2.2,2.2,39,0.00,,BKN240,0.00,VWS V14.00,2013-01-12 19:54:00,
2013-01-12 14:55:00,57.7,32.3,28.91,NW,309,0.0,0.0,38,0.00,,BKN240,0.00,VWS V14.00,2013-01-12 19:55:00,
2013-01-12 14:57:00,57.7,32.3,28.91,ENE,73,3.1,3.1,38,0.00,,BKN240,0.00,VWS V14.00,2013-01-12 19:57:00,
2013-01-12 14:58:00,57.7,32.3,28.91,ENE,74,3.1,3.1,38,0.00,,OVC240,0.00,VWS V14.00,2013-01-12 19:58:00,
2013-01-12 15:00:00,57.7,32.3,28.91,ENE,74,2.7,2.7,38,0.00,,OVC240,0.00,VWS V14.00,2013-01-12 20:00:00,
2013-01-12 15:02:00,57.7,32.3,28.91,East,100,0.0,0.0,38,0.00,,OVC240,0.00,VWS V14.00,2013-01-12 20:02:00,
2013-01-12 15:04:00,57.7,31.7,28.91,ENE,63,0.0,0.0,37,0.00,,OVC240,0.00,VWS V14.00,2013-01-12 20:04:00,
2013-01-12 15:05:00,57.7,31.7,28.91,East,93,2.7,2.7,37,0.00,,OVC240,0.00,VWS V14.00,2013-01-12 20:05:00,
2013-01-12 15:07:00,57.7,31.7,28.91,East,83,2.2,2.2,37,0.00,,OVC240,0.00,VWS V14.00,2013-01-12 20:07:00,
2013-01-12 15:09:00,57.7,31.7,28.91,ENE,57,2.2,2.2,37,0.00,,OVC240,0.00,VWS V14.00,2013-01-12 20:09:00,
2013-01-12 15:10:00,57.7,31.7,28.91,ENE,57,0.0,0.0,37,0.00,,OVC240,0.00,VWS V14.00,2013-01-12 20:10:00,
2013-01-12 15:12:00,57.7,31.7,28.91,East,93,2.7,2.7,37,0.00,,OVC240,0.00,VWS V14.00,2013-01-12 20:12:00,
2013-01-12 15:14:00,57.7,31.7,28.91,ENE,69,3.1,3.1,37,0.00,,OVC240,0.00,VWS V14.00,2013-01-12 20:14:00,
2013-01-12 15:15:00,57.7,31.7,28.91,ENE,68,3.1,3.1,37,0.00,,OVC240,0.00,VWS V14.00,2013-01-12 20:15:00,
2013-01-12 15:17:00,57.7,31.7,28.91,ESE,103,3.1,3.1,37,0.00,,OVC240,0.00,VWS V14.00,2013-01-12 20:17:00,
2013-01-12 15:19:00,57.7,31.7,28.91,ENE,77,0.0,0.0,37,0.00,,OVC240,0.00,VWS V14.00,2013-01-12 20:19:00,
2013-01-12 15:20:00,57.7,31.7,28.91,ESE,109,0.0,0.0,37,0.00,,OVC240,0.00,VWS V14.00,2013-01-12 20:20:00,
2013-01-12 15:22:00,57.9,31.8,28.91,SW,225,0.0,0.0,37,0.00,,OVC240,0.00,VWS V14.00,2013-01-12 20:22:00,
2013-01-12 15:24:00,57.9,31.8,28.91,East,83,2.7,2.7,37,0.00,,OVC240,0.00,VWS V14.00,2013-01-12 20:24:00,
2013-01-12 15:25:00,57.9,31.8,28.91,ENE,59,3.6,3.6,37,0.00,,OVC240,0.00,VWS V14.00,2013-01-12 20:25:00,
2013-01-12 15:27:00,57.9,31.8,28.91,NE,53,0.0,0.0,37,0.00,,OVC240,0.00,VWS V14.00,2013-01-12 20:27:00,
2013-01-12 15:29:00,57.9,31.8,28.91,ENE,70,0.0,0.0,37,0.00,,OVC240,0.00,VWS V14.00,2013-01-12 20:29:00,
2013-01-12 15:30:00,57.9,31.8,28.91,East,86,0.0,0.0,37,0.00,,OVC240,0.00,VWS V14.00,2013-01-12 20:30:00,
2013-01-12 15:31:00,57.9,31.8,28.91,SE,144,2.7,2.7,37,0.00,,OVC240,0.00,VWS V14.00,2013-01-12 20:31:00,
2013-01-12 15:32:00,57.7,31.7,28.91,ENE,76,2.7,2.7,37,0.00,,OVC240,0.00,VWS V14.00,2013-01-12 20:32:00,
2013-01-12 15:34:00,57.7,31.7,28.91,ESE,118,0.0,0.0,37,0.00,,OVC240,0.00,VWS V14.00,2013-01-12 20:34:00,
2013-01-12 15:35:00,57.7,31.7,28.91,ESE,104,3.6,3.6,37,0.00,,OVC240,0.00,VWS V14.00,2013-01-12 20:35:00,
2013-01-12 15:36:00,57.7,31.7,28.91,ESE,116,2.2,2.2,37,0.00,,OVC240,0.00,VWS V14.00,2013-01-12 20:36:00,
2013-01-12 15:37:00,57.7,31.7,28.91,SE,139,2.2,2.2,37,0.00,,OVC240,0.00,VWS V14.00,2013-01-12 20:37:00,
2013-01-12 15:39:00,57.7,31.7,28.91,SE,139,0.0,0.0,37,0.00,,OVC240,0.00,VWS V14.00,2013-01-12 20:39:00,
2013-01-12 15:40:00,57.7,31.7,28.91,SE,139,0.0,0.0,37,0.00,,OVC240,0.00,VWS V14.00,2013-01-12 20:40:00,
2013-01-12 15:41:00,57.7,31.7,28.91,SE,139,0.0,0.0,37,0.00,,OVC240,0.00,VWS V14.00,2013-01-12 20:41:00,
2013-01-12 15:42:00,57.7,31.7,28.91,SE,139,0.0,0.0,37,0.00,,OVC240,0.00,VWS V14.00,2013-01-12 20:42:00,
2013-01-12 15:44:00,57.6,31.5,28.91,ENE,72,0.0,0.0,37,0.00,,OVC240,0.00,VWS V14.00,2013-01-12 20:44:00,
2013-01-12 15:46:00,57.6,31.5,28.91,ESE,113,3.1,3.1,37,0.00,,OVC240,0.00,VWS V14.00,2013-01-12 20:46:00,
2013-01-12 15:48:00,57.6,31.5,28.91,East,85,3.6,3.6,37,0.00,,OVC240,0.00,VWS V14.00,2013-01-12 20:48:00,
2013-01-12 15:49:00,57.6,31.5,28.91,East,83,0.0,0.0,37,0.00,,OVC240,0.00,VWS V14.00,2013-01-12 20:49:00,
2013-01-12 15:51:00,57.6,31.5,28.91,East,98,0.0,0.0,37,0.00,,OVC240,0.00,VWS V14.00,2013-01-12 20:51:00,
2013-01-12 15:53:00,57.4,31.3,28.91,East,100,0.0,0.0,37,0.00,,OVC240,0.00,VWS V14.00,2013-01-12 20:53:00,
2013-01-12 15:54:00,57.4,31.3,28.91,ENE,69,0.0,0.0,37,0.00,,OVC240,0.00,VWS V14.00,2013-01-12 20:54:00,
2013-01-12 15:56:00,57.4,32.0,28.91,ESE,113,0.0,0.0,38,0.00,,OVC240,0.00,VWS V14.00,2013-01-12 20:56:00,
2013-01-12 15:58:00,57.2,31.8,28.91,ENE,66,2.2,2.2,38,0.00,,OVC230,0.00,VWS V14.00,2013-01-12 20:58:00,
2013-01-12 16:00:00,57.2,31.8,28.91,ENE,70,0.0,0.0,38,0.00,,OVC230,0.00,VWS V14.00,2013-01-12 21:00:00,
2013-01-12 16:01:00,57.2,31.8,28.91,ENE,78,0.0,0.0,38,0.00,,OVC230,0.00,VWS V14.00,2013-01-12 21:01:00,
2013-01-12 16:03:00,57.2,31.8,28.91,ENE,58,0.0,0.0,38,0.00,,OVC230,0.00,VWS V14.00,2013-01-12 21:03:00,
2013-01-12 16:05:00,57.0,31.7,28.91,NE,51,0.0,0.0,38,0.00,,OVC230,0.00,VWS V14.00,2013-01-12 21:05:00,
2013-01-12 16:06:00,57.0,32.3,28.91,East,84,0.0,0.0,39,0.00,,OVC230,0.00,VWS V14.00,2013-01-12 21:06:00,
2013-01-12 16:08:00,56.8,32.2,28.91,NNE,24,0.0,0.0,39,0.00,,OVC230,0.00,VWS V14.00,2013-01-12 21:08:00,
2013-01-12 16:10:00,56.8,32.2,28.91,East,80,0.0,0.0,39,0.00,,OVC230,0.00,VWS V14.00,2013-01-12 21:10:00,
2013-01-12 16:11:00,56.8,32.2,28.91,ENE,72,0.0,0.0,39,0.00,,OVC230,0.00,VWS V14.00,2013-01-12 21:11:00,
2013-01-12 16:12:00,56.8,32.2,28.91,ENE,71,0.0,0.0,39,0.00,,OVC230,0.00,VWS V14.00,2013-01-12 21:12:00,
2013-01-12 16:13:00,56.8,32.2,28.91,ENE,71,0.0,0.0,39,0.00,,OVC230,0.00,VWS V14.00,2013-01-12 21:13:00,
2013-01-12 16:15:00,56.7,32.0,28.91,ENE,71,0.0,0.0,39,0.00,,OVC230,0.00,VWS V14.00,2013-01-12 21:15:00,
2013-01-12 16:17:00,56.7,32.0,28.91,ENE,72,0.0,0.0,39,0.00,,OVC230,0.00,VWS V14.00,2013-01-12 21:17:00,
2013-01-12 16:18:00,56.7,32.6,28.91,East,86,0.0,0.0,40,0.00,,OVC230,0.00,VWS V14.00,2013-01-12 21:18:00,
2013-01-12 16:20:00,56.5,32.5,28.91,ENE,62,3.6,3.6,40,0.00,,OVC230,0.00,VWS V14.00,2013-01-12 21:20:00,
2013-01-12 16:22:00,56.5,32.5,28.91,SE,138,0.0,0.0,40,0.00,,OVC230,0.00,VWS V14.00,2013-01-12 21:22:00,
2013-01-12 16:23:00,56.5,33.1,28.91,SE,136,0.0,0.0,41,0.00,,OVC230,0.00,VWS V14.00,2013-01-12 21:23:00,
2013-01-12 16:25:00,56.5,33.1,28.91,ESE,116,0.0,0.0,41,0.00,,OVC230,0.00,VWS V14.00,2013-01-12 21:25:00,
2013-01-12 16:27:00,56.3,32.9,28.91,WNW,301,0.0,0.0,41,0.00,,OVC230,0.00,VWS V14.00,2013-01-12 21:27:00,
2013-01-12 16:28:00,56.3,32.9,28.91,WNW,301,0.0,0.0,41,0.00,,OVC230,0.00,VWS V14.00,2013-01-12 21:28:00,
2013-01-12 16:30:00,56.1,32.8,28.91,NW,310,0.0,0.0,41,0.00,,OVC230,0.00,VWS V14.00,2013-01-12 21:30:00,
2013-01-12 16:32:00,56.1,32.8,28.91,NW,309,0.0,0.0,41,0.00,,OVC230,0.00,VWS V14.00,2013-01-12 21:32:00,
2013-01-12 16:33:00,55.9,33.2,28.91,NW,310,0.0,0.0,42,0.00,,OVC230,0.00,VWS V14.00,2013-01-12 21:33:00,
2013-01-12 16:35:00,55.9,33.2,28.91,ESE,106,3.1,3.1,42,0.00,,OVC230,0.00,VWS V14.00,2013-01-12 21:35:00,
2013-01-12 16:37:00,55.8,33.0,28.91,East,94,0.0,0.0,42,0.00,,OVC230,0.00,VWS V14.00,2013-01-12 21:37:00,
2013-01-12 16:38:00,55.8,33.6,28.91,SSW,198,0.0,0.0,43,0.00,,OVC230,0.00,VWS V14.00,2013-01-12 21:38:00,
2013-01-12 16:41:00,55.6,33.5,28.91,ENE,63,0.0,0.0,43,0.00,,OVC230,0.00,VWS V14.00,2013-01-12 21:41:00,
2013-01-12 16:42:00,55.6,34.0,28.91,NE,51,2.2,2.2,44,0.00,,OVC230,0.00,VWS V14.00,2013-01-12 21:42:00,
2013-01-12 16:43:00,55.4,33.9,28.91,ENE,63,0.0,0.0,44,0.00,,OVC230,0.00,VWS V14.00,2013-01-12 21:43:00,
2013-01-12 16:46:00,55.4,34.4,28.91,East,98,0.0,0.0,45,0.00,,OVC230,0.00,VWS V14.00,2013-01-12 21:46:00,
2013-01-12 16:47:00,55.2,34.3,28.91,East,98,0.0,0.0,45,0.00,,OVC230,0.00,VWS V14.00,2013-01-12 21:47:00,
2013-01-12 16:48:00,55.2,34.3,28.91,SE,146,0.0,0.0,45,0.00,,OVC230,0.00,VWS V14.00,2013-01-12 21:48:00,
2013-01-12 16:51:00,55.0,34.7,28.91,ENE,71,0.0,0.0,46,0.00,,OVC230,0.00,VWS V14.00,2013-01-12 21:51:00,
2013-01-12 16:52:00,55.0,34.7,28.91,East,92,2.2,2.2,46,0.00,,OVC230,0.00,VWS V14.00,2013-01-12 21:52:00,
2013-01-12 16:53:00,55.0,34.7,28.91,East,85,3.1,3.1,46,0.00,,OVC230,0.00,VWS V14.00,2013-01-12 21:53:00,
2013-01-12 16:56:00,54.9,34.5,28.91,SSW,200,0.0,0.0,46,0.00,,OVC230,0.00,VWS V14.00,2013-01-12 21:56:00,
2013-01-12 16:57:00,54.7,34.3,28.91,SSW,200,0.0,0.0,46,0.00,,OVC220,0.00,VWS V14.00,2013-01-12 21:57:00,
2013-01-12 16:58:00,54.7,34.3,28.91,East,83,0.0,0.0,46,0.00,,OVC220,0.00,VWS V14.00,2013-01-12 21:58:00,
2013-01-12 17:01:00,54.5,34.7,28.91,ESE,103,0.0,0.0,47,0.00,,OVC220,0.00,VWS V14.00,2013-01-12 22:01:00,
2013-01-12 17:03:00,54.5,34.7,28.91,ENE,74,0.0,0.0,47,0.00,,OVC220,0.00,VWS V14.00,2013-01-12 22:03:00,
2013-01-12 17:04:00,54.5,34.7,28.91,ENE,72,0.0,0.0,47,0.00,,OVC220,0.00,VWS V14.00,2013-01-12 22:04:00,
2013-01-12 17:06:00,54.5,34.7,28.91,East,83,3.1,3.1,47,0.00,,OVC220,0.00,VWS V14.00,2013-01-12 22:06:00,
2013-01-12 17:08:00,54.5,34.7,28.91,ENE,65,3.1,3.1,47,0.00,,OVC220,0.00,VWS V14.00,2013-01-12 22:08:00,
2013-01-12 17:09:00,54.5,35.2,28.91,East,87,4.9,4.9,48,0.00,,OVC220,0.00,VWS V14.00,2013-01-12 22:09:00,
2013-01-12 17:11:00,54.5,35.2,28.91,ESE,103,0.0,0.0,48,0.00,,OVC220,0.00,VWS V14.00,2013-01-12 22:11:00,
2013-01-12 17:13:00,54.5,35.2,28.91,ENE,57,4.0,4.0,48,0.00,,OVC220,0.00,VWS V14.00,2013-01-12 22:13:00,
2013-01-12 17:14:00,54.5,35.2,28.91,ENE,57,0.0,0.0,48,0.00,,OVC220,0.00,VWS V14.00,2013-01-12 22:14:00,
2013-01-12 17:16:00,54.5,35.2,28.91,ENE,57,0.0,0.0,48,0.00,,OVC220,0.00,VWS V14.00,2013-01-12 22:16:00,
2013-01-12 17:18:00,54.3,35.1,28.91,ENE,57,0.0,0.0,48,0.00,,OVC220,0.00,VWS V14.00,2013-01-12 22:18:00,
2013-01-12 17:19:00,54.3,35.1,28.91,ENE,57,0.0,0.0,48,0.00,,OVC220,0.00,VWS V14.00,2013-01-12 22:19:00,
2013-01-12 17:20:00,54.3,35.1,28.91,ENE,57,0.0,0.0,48,0.00,,OVC220,0.00,VWS V14.00,2013-01-12 22:20:00,
2013-01-12 17:21:00,54.1,34.9,28.91,ENE,57,0.0,0.0,48,0.00,,OVC220,0.00,VWS V14.00,2013-01-12 22:21:00,
2013-01-12 17:23:00,54.1,35.4,28.91,ENE,71,3.6,3.6,49,0.00,,OVC220,0.00,VWS V14.00,2013-01-12 22:23:00,
2013-01-12 17:24:00,54.1,35.4,28.91,ENE,57,0.0,0.0,49,0.00,,OVC220,0.00,VWS V14.00,2013-01-12 22:24:00,
2013-01-12 17:25:00,54.1,35.4,28.91,ENE,60,0.0,0.0,49,0.00,,OVC220,0.00,VWS V14.00,2013-01-12 22:25:00,
2013-01-12 17:26:00,54.1,35.4,28.91,ENE,60,0.0,0.0,49,0.00,,OVC220,0.00,VWS V14.00,2013-01-12 22:26:00,
2013-01-12 17:28:00,54.0,35.2,28.94,ENE,60,0.0,0.0,49,0.00,,OVC220,0.00,VWS V14.00,2013-01-12 22:28:00,
2013-01-12 17:29:00,54.0,35.2,28.94,ENE,60,0.0,0.0,49,0.00,,OVC220,0.00,VWS V14.00,2013-01-12 22:29:00,
2013-01-12 17:30:00,54.0,35.2,28.94,ENE,60,0.0,0.0,49,0.00,,OVC220,0.00,VWS V14.00,2013-01-12 22:30:00,
2013-01-12 17:31:00,54.0,35.2,28.94,NNE,24,0.0,0.0,49,0.00,,OVC220,0.00,VWS V14.00,2013-01-12 22:31:00,
2013-01-12 17:33:00,54.0,35.8,28.94,East,87,0.0,0.0,50,0.00,,OVC220,0.00,VWS V14.00,2013-01-12 22:33:00,
2013-01-12 17:34:00,54.0,35.8,28.94,East,87,0.0,0.0,50,0.00,,OVC220,0.00,VWS V14.00,2013-01-12 22:34:00,
2013-01-12 17:35:00,54.0,35.8,28.94,East,87,0.0,0.0,50,0.00,,OVC220,0.00,VWS V14.00,2013-01-12 22:35:00,
2013-01-12 17:36:00,54.0,35.8,28.94,WNW,295,4.0,4.0,50,0.00,,OVC220,0.00,VWS V14.00,2013-01-12 22:36:00,
2013-01-12 17:39:00,53.8,35.6,28.94,ENE,70,0.0,0.0,50,0.00,,OVC220,0.00,VWS V14.00,2013-01-12 22:39:00,
2013-01-12 17:40:00,53.8,35.6,28.94,ENE,70,0.0,0.0,50,0.00,,OVC220,0.00,VWS V14.00,2013-01-12 22:40:00,
2013-01-12 17:41:00,53.8,36.1,28.94,ENE,70,0.0,0.0,51,0.00,,OVC220,0.00,VWS V14.00,2013-01-12 22:41:00,
2013-01-12 17:44:00,53.8,36.1,28.94,East,86,0.0,0.0,51,0.00,,OVC220,0.00,VWS V14.00,2013-01-12 22:44:00,
2013-01-12 17:45:00,53.8,36.1,28.94,East,88,0.0,0.0,51,0.00,,OVC220,0.00,VWS V14.00,2013-01-12 22:45:00,
2013-01-12 17:46:00,53.8,36.1,28.94,ENE,57,3.1,3.1,51,0.00,,OVC220,0.00,VWS V14.00,2013-01-12 22:46:00,
2013-01-12 17:49:00,54.0,36.8,28.94,ENE,73,2.2,2.2,52,0.00,,OVC220,0.00,VWS V14.00,2013-01-12 22:49:00,
2013-01-12 17:50:00,54.0,36.8,28.94,ENE,73,0.0,0.0,52,0.00,,OVC220,0.00,VWS V14.00,2013-01-12 22:50:00,
2013-01-12 17:51:00,53.8,36.6,28.94,NE,45,0.0,0.0,52,0.00,,OVC220,0.00,VWS V14.00,2013-01-12 22:51:00,
2013-01-12 17:54:00,53.8,36.6,28.94,ENE,78,0.0,0.0,52,0.00,,OVC220,0.00,VWS V14.00,2013-01-12 22:54:00,
2013-01-12 17:55:00,53.8,36.6,28.94,ENE,78,0.0,0.0,52,0.00,,OVC220,0.00,VWS V14.00,2013-01-12 22:55:00,
2013-01-12 17:56:00,53.8,36.6,28.94,ENE,78,0.0,0.0,52,0.00,,OVC220,0.00,VWS V14.00,2013-01-12 22:56:00,
2013-01-12 17:59:00,53.8,36.6,28.94,ENE,78,0.0,0.0,52,0.00,,OVC220,0.00,VWS V14.00,2013-01-12 22:59:00,
2013-01-12 18:00:00,53.6,36.4,28.94,ENE,78,0.0,0.0,52,0.00,,OVC220,0.00,VWS V14.00,2013-01-12 23:00:00,
2013-01-12 18:01:00,53.6,36.4,28.94,East,84,0.0,0.0,52,0.00,,OVC220,0.00,VWS V14.00,2013-01-12 23:01:00,
2013-01-12 18:04:00,53.6,36.4,28.94,East,84,0.0,0.0,52,0.00,,OVC150,0.00,VWS V14.00,2013-01-12 23:04:00,
2013-01-12 18:05:00,53.6,36.4,28.94,East,84,0.0,0.0,52,0.00,,OVC150,0.00,VWS V14.00,2013-01-12 23:05:00,
2013-01-12 18:06:00,53.6,36.9,28.94,East,84,0.0,0.0,53,0.00,,OVC150,0.00,VWS V14.00,2013-01-12 23:06:00,
2013-01-12 18:09:00,53.4,36.7,28.94,East,84,0.0,0.0,53,0.00,,OVC150,0.00,VWS V14.00,2013-01-12 23:09:00,
2013-01-12 18:10:00,53.4,36.7,28.94,East,84,0.0,0.0,53,0.00,,OVC150,0.00,VWS V14.00,2013-01-12 23:10:00,
2013-01-12 18:11:00,53.4,36.7,28.91,East,84,0.0,0.0,53,0.00,,OVC150,0.00,VWS V14.00,2013-01-12 23:11:00,
2013-01-12 18:14:00,53.4,36.7,28.91,ENE,62,0.0,0.0,53,0.00,,OVC150,0.00,VWS V14.00,2013-01-12 23:14:00,
2013-01-12 18:15:00,53.4,36.7,28.91,ENE,63,0.0,0.0,53,0.00,,OVC150,0.00,VWS V14.00,2013-01-12 23:15:00,
2013-01-12 18:16:00,53.4,37.2,28.91,ENE,62,0.0,0.0,54,0.00,,OVC150,0.00,VWS V14.00,2013-01-12 23:16:00,
2013-01-12 18:19:00,53.2,37.0,28.91,ENE,76,0.0,0.0,54,0.00,,OVC150,0.00,VWS V14.00,2013-01-12 23:19:00,
2013-01-12 18:20:00,53.2,37.0,28.91,ENE,76,0.0,0.0,54,0.00,,OVC150,0.00,VWS V14.00,2013-01-12 23:20:00,
2013-01-12 18:21:00,53.2,37.0,28.91,ESE,119,0.0,0.0,54,0.00,,OVC150,0.00,VWS V14.00,2013-01-12 23:21:00,
2013-01-12 18:25:00,53.2,37.0,28.91,ESE,120,0.0,0.0,54,0.00,,OVC150,0.00,VWS V14.00,2013-01-12 23:25:00,
2013-01-12 18:26:00,53.2,37.0,28.91,ESE,119,0.0,0.0,54,0.00,,OVC150,0.00,VWS V14.00,2013-01-12 23:26:00,
2013-01-12 18:30:00,53.2,37.5,28.91,NE,50,0.0,0.0,55,0.00,,OVC150,0.00,VWS V14.00,2013-01-12 23:30:00,
2013-01-12 18:32:00,53.2,37.5,28.91,NE,50,0.0,0.0,55,0.00,,OVC150,0.00,VWS V14.00,2013-01-12 23:32:00,
2013-01-12 18:35:00,53.2,37.5,28.91,ENE,62,0.0,0.0,55,0.00,,OVC150,0.00,VWS V14.00,2013-01-12 23:35:00,
2013-01-12 18:36:00,53.2,37.5,28.91,ENE,62,0.0,0.0,55,0.00,,OVC150,0.00,VWS V14.00,2013-01-12 23:36:00,
2013-01-12 18:37:00,53.2,37.5,28.91,ENE,62,0.0,0.0,55,0.00,,OVC150,0.00,VWS V14.00,2013-01-12 23:37:00,
2013-01-12 18:40:00,53.1,37.3,28.91,ENE,62,0.0,0.0,55,0.00,,OVC150,0.00,VWS V14.00,2013-01-12 23:40:00,
2013-01-12 18:41:00,53.1,37.3,28.91,ENE,62,0.0,0.0,55,0.00,,OVC150,0.00,VWS V14.00,2013-01-12 23:41:00,
2013-01-12 18:42:00,53.1,37.3,28.91,SE,127,0.0,0.0,55,0.00,,OVC150,0.00,VWS V14.00,2013-01-12 23:42:00,
2013-01-12 18:45:00,53.1,37.8,28.91,East,89,0.0,0.0,56,0.00,,OVC150,0.00,VWS V14.00,2013-01-12 23:45:00,
2013-01-12 18:46:00,53.1,37.8,28.91,East,89,0.0,0.0,56,0.00,,OVC150,0.00,VWS V14.00,2013-01-12 23:46:00,
2013-01-12 18:47:00,53.1,37.8,28.91,East,89,0.0,0.0,56,0.00,,OVC150,0.00,VWS V14.00,2013-01-12 23:47:00,
2013-01-12 18:50:00,53.1,37.8,28.91,East,88,0.0,0.0,56,0.00,,OVC150,0.00,VWS V14.00,2013-01-12 23:50:00,
2013-01-12 18:51:00,53.1,37.8,28.91,East,89,0.0,0.0,56,0.00,,OVC150,0.00,VWS V14.00,2013-01-12 23:51:00,
2013-01-12 18:52:00,52.9,37.6,28.91,East,89,0.0,0.0,56,0.00,,OVC150,0.00,VWS V14.00,2013-01-12 23:52:00,
2013-01-12 18:55:00,52.9,37.6,28.91,East,89,0.0,0.0,56,0.00,,OVC150,0.00,VWS V14.00,2013-01-12 23:55:00,
2013-01-12 18:56:00,52.7,37.5,28.91,East,89,0.0,0.0,56,0.00,,OVC150,0.00,VWS V14.00,2013-01-12 23:56:00,
2013-01-12 18:57:00,52.7,37.5,28.91,East,88,0.0,0.0,56,0.00,,OVC140,0.00,VWS V14.00,2013-01-12 23:57:00,
2013-01-12 19:00:00,52.7,37.5,28.91,East,89,0.0,0.0,56,0.00,,OVC140,0.00,VWS V14.00,2013-01-13 00:00:00,
2013-01-12 19:01:00,52.5,37.7,28.91,East,89,0.0,0.0,57,0.00,,OVC140,0.00,VWS V14.00,2013-01-13 00:01:00,
2013-01-12 19:02:00,52.5,37.7,28.91,East,91,0.0,0.0,57,0.00,,OVC140,0.00,VWS V14.00,2013-01-13 00:02:00,
2013-01-12 19:05:00,52.5,37.7,28.91,East,91,0.0,0.0,57,0.00,,OVC140,0.00,VWS V14.00,2013-01-13 00:05:00,
2013-01-12 19:06:00,52.5,37.7,28.91,ESE,105,0.0,0.0,57,0.00,,OVC140,0.00,VWS V14.00,2013-01-13 00:06:00,
2013-01-12 19:07:00,52.5,37.7,28.91,ESE,106,0.0,0.0,57,0.00,,OVC140,0.00,VWS V14.00,2013-01-13 00:07:00,
2013-01-12 19:10:00,52.5,37.7,28.91,East,90,0.0,0.0,57,0.00,,OVC140,0.00,VWS V14.00,2013-01-13 00:10:00,
2013-01-12 19:11:00,52.5,38.2,28.94,East,90,0.0,0.0,58,0.00,,OVC140,0.00,VWS V14.00,2013-01-13 00:11:00,
2013-01-12 19:12:00,52.5,38.2,28.94,East,90,0.0,0.0,58,0.00,,OVC140,0.00,VWS V14.00,2013-01-13 00:12:00,
2013-01-12 19:16:00,52.7,38.3,28.94,East,93,0.0,0.0,58,0.00,,OVC140,0.00,VWS V14.00,2013-01-13 00:16:00,
2013-01-12 19:17:00,52.7,38.3,28.94,East,93,0.0,0.0,58,0.00,,OVC140,0.00,VWS V14.00,2013-01-13 00:17:00,
2013-01-12 19:21:00,52.5,38.6,28.94,East,93,0.0,0.0,59,0.00,,OVC140,0.00,VWS V14.00,2013-01-13 00:21:00,
2013-01-12 19:22:00,52.5,38.6,28.94,East,93,0.0,0.0,59,0.00,,OVC140,0.00,VWS V14.00,2013-01-13 00:22:00,
2013-01-12 19:26:00,52.5,38.6,28.94,SSE,152,0.0,0.0,59,0.00,,OVC140,0.00,VWS V14.00,2013-01-13 00:26:00,
2013-01-12 19:27:00,52.5,38.6,28.94,SSE,153,0.0,0.0,59,0.00,,OVC140,0.00,VWS V14.00,2013-01-13 00:27:00,
2013-01-12 19:28:00,52.5,38.6,28.94,ESE,110,0.0,0.0,59,0.00,,OVC140,0.00,VWS V14.00,2013-01-13 00:28:00,
2013-01-12 19:32:00,52.5,39.0,28.94,ESE,110,0.0,0.0,60,0.00,,OVC140,0.00,VWS V14.00,2013-01-13 00:32:00,
2013-01-12 19:33:00,52.5,39.0,28.94,ESE,110,0.0,0.0,60,0.00,,OVC140,0.00,VWS V14.00,2013-01-13 00:33:00,
2013-01-12 19:37:00,52.3,38.9,28.94,East,93,0.0,0.0,60,0.00,,OVC140,0.00,VWS V14.00,2013-01-13 00:37:00,
2013-01-12 19:38:00,52.3,38.9,28.94,East,93,0.0,0.0,60,0.00,,OVC140,0.00,VWS V14.00,2013-01-13 00:38:00,
2013-01-12 19:42:00,52.2,38.7,28.94,East,93,0.0,0.0,60,0.00,,OVC140,0.00,VWS V14.00,2013-01-13 00:42:00,
2013-01-12 19:43:00,52.2,38.7,28.94,East,93,0.0,0.0,60,0.00,,OVC140,0.00,VWS V14.00,2013-01-13 00:43:00,
2013-01-12 19:47:00,52.2,39.1,28.94,East,93,0.0,0.0,61,0.00,,OVC140,0.00,VWS V14.00,2013-01-13 00:47:00,
2013-01-12 19:48:00,52.2,39.1,28.94,East,93,0.0,0.0,61,0.00,,OVC140,0.00,VWS V14.00,2013-01-13 00:48:00,
2013-01-12 19:52:00,52.0,39.0,28.94,East,93,0.0,0.0,61,0.00,,OVC140,0.00,VWS V14.00,2013-01-13 00:52:00,
2013-01-12 19:53:00,52.0,39.0,28.94,East,93,0.0,0.0,61,0.00,,OVC140,0.00,VWS V14.00,2013-01-13 00:53:00,
2013-01-12 19:57:00,51.8,38.8,28.91,East,93,0.0,0.0,61,0.00,,OVC140,0.00,VWS V14.00,2013-01-13 00:57:00,
2013-01-12 19:58:00,51.8,38.8,28.91,East,93,0.0,0.0,61,0.00,,OVC140,0.00,VWS V14.00,2013-01-13 00:58:00,
2013-01-12 20:02:00,51.8,39.2,28.91,East,93,0.0,0.0,62,0.00,,OVC130,0.00,VWS V14.00,2013-01-13 01:02:00,
2013-01-12 20:03:00,51.8,39.2,28.91,East,93,0.0,0.0,62,0.00,,OVC130,0.00,VWS V14.00,2013-01-13 01:03:00,
2013-01-12 20:07:00,51.6,39.0,28.91,East,93,0.0,0.0,62,0.00,,OVC130,0.00,VWS V14.00,2013-01-13 01:07:00,
2013-01-12 20:08:00,51.6,39.5,28.91,East,93,0.0,0.0,63,0.00,,OVC130,0.00,VWS V14.00,2013-01-13 01:08:00,
2013-01-12 20:12:00,51.4,39.3,28.91,East,93,0.0,0.0,63,0.00,,OVC130,0.00,VWS V14.00,2013-01-13 01:12:00,
2013-01-12 20:13:00,51.4,39.3,28.91,East,93,0.0,0.0,63,0.00,,OVC130,0.00,VWS V14.00,2013-01-13 01:13:00,
2013-01-12 20:17:00,51.3,39.1,28.91,East,93,0.0,0.0,63,0.00,,OVC130,0.00,VWS V14.00,2013-01-13 01:17:00,
2013-01-12 20:18:00,51.3,39.1,28.91,East,93,0.0,0.0,63,0.00,,OVC130,0.00,VWS V14.00,2013-01-13 01:18:00,
2013-01-12 20:22:00,51.1,38.9,28.91,East,93,0.0,0.0,63,0.00,,OVC130,0.00,VWS V14.00,2013-01-13 01:22:00,
2013-01-12 20:23:00,50.9,38.8,28.91,East,93,0.0,0.0,63,0.00,,OVC130,0.00,VWS V14.00,2013-01-13 01:23:00,
2013-01-12 20:24:00,50.9,38.8,28.91,East,93,0.0,0.0,63,0.00,,OVC130,0.00,VWS V14.00,2013-01-13 01:24:00,
2013-01-12 20:27:00,50.7,39.0,28.91,East,93,0.0,0.0,64,0.00,,OVC130,0.00,VWS V14.00,2013-01-13 01:27:00,
2013-01-12 20:29:00,50.7,39.0,28.91,East,93,0.0,0.0,64,0.00,,OVC130,0.00,VWS V14.00,2013-01-13 01:29:00,
2013-01-12 20:32:00,50.5,38.8,28.91,East,93,0.0,0.0,64,0.00,,OVC130,0.00,VWS V14.00,2013-01-13 01:32:00,
2013-01-12 20:34:00,50.4,38.7,28.91,East,93,0.0,0.0,64,0.00,,OVC130,0.00,VWS V14.00,2013-01-13 01:34:00,
2013-01-12 20:37:00,50.2,38.5,28.91,East,93,0.0,0.0,64,0.00,,OVC130,0.00,VWS V14.00,2013-01-13 01:37:00,
2013-01-12 20:39:00,50.2,38.5,28.91,East,93,0.0,0.0,64,0.00,,OVC130,0.00,VWS V14.00,2013-01-13 01:39:00,
2013-01-12 20:43:00,50.0,38.3,28.91,East,93,0.0,0.0,64,0.00,,OVC130,0.00,VWS V14.00,2013-01-13 01:43:00,
2013-01-12 20:44:00,50.0,38.3,28.91,East,93,0.0,0.0,64,0.00,,OVC130,0.00,VWS V14.00,2013-01-13 01:44:00,
2013-01-12 20:48:00,49.6,38.4,28.91,East,93,0.0,0.0,65,0.00,,OVC130,0.00,VWS V14.00,2013-01-13 01:48:00,
2013-01-12 20:49:00,49.6,38.4,28.91,East,93,0.0,0.0,65,0.00,,OVC130,0.00,VWS V14.00,2013-01-13 01:49:00,
2013-01-12 20:53:00,49.5,38.2,28.91,East,93,0.0,0.0,65,0.00,,OVC130,0.00,VWS V14.00,2013-01-13 01:53:00,
2013-01-12 20:54:00,49.3,38.0,28.91,East,93,0.0,0.0,65,0.00,,OVC130,0.00,VWS V14.00,2013-01-13 01:54:00,
2013-01-12 20:58:00,49.3,38.4,28.91,East,93,0.0,0.0,66,0.00,,OVC130,0.00,VWS V14.00,2013-01-13 01:58:00,
2013-01-12 20:59:00,49.3,38.4,28.91,East,93,0.0,0.0,66,0.00,,OVC130,0.00,VWS V14.00,2013-01-13 01:59:00,
2013-01-12 21:03:00,49.1,38.2,28.91,East,93,0.0,0.0,66,0.00,,OVC130,0.00,VWS V14.00,2013-01-13 02:03:00,
2013-01-12 21:04:00,49.1,38.2,28.91,East,93,0.0,0.0,66,0.00,,OVC130,0.00,VWS V14.00,2013-01-13 02:04:00,
2013-01-12 21:08:00,49.1,38.2,28.91,East,93,0.0,0.0,66,0.00,,OVC130,0.00,VWS V14.00,2013-01-13 02:08:00,
2013-01-12 21:09:00,49.1,38.2,28.91,East,93,0.0,0.0,66,0.00,,OVC130,0.00,VWS V14.00,2013-01-13 02:09:00,
2013-01-12 21:10:00,49.1,38.2,28.91,East,93,0.0,0.0,66,0.00,,OVC130,0.00,VWS V14.00,2013-01-13 02:10:00,
2013-01-12 21:13:00,48.9,38.1,28.91,East,93,0.0,0.0,66,0.00,,OVC130,0.00,VWS V14.00,2013-01-13 02:13:00,
2013-01-12 21:14:00,48.7,37.9,28.91,East,93,0.0,0.0,66,0.00,,OVC130,0.00,VWS V14.00,2013-01-13 02:14:00,
2013-01-12 21:15:00,48.7,37.9,28.91,East,93,0.0,0.0,66,0.00,,OVC130,0.00,VWS V14.00,2013-01-13 02:15:00,
2013-01-12 21:18:00,48.7,38.3,28.91,East,93,0.0,0.0,67,0.00,,OVC130,0.00,VWS V14.00,2013-01-13 02:18:00,
2013-01-12 21:19:00,48.7,38.3,28.91,East,93,0.0,0.0,67,0.00,,OVC130,0.00,VWS V14.00,2013-01-13 02:19:00,
2013-01-12 21:21:00,48.6,38.1,28.91,East,93,0.0,0.0,67,0.00,,OVC130,0.00,VWS V14.00,2013-01-13 02:21:00,
2013-01-12 21:24:00,48.4,37.9,28.91,East,93,0.0,0.0,67,0.00,,OVC130,0.00,VWS V14.00,2013-01-13 02:24:00,
2013-01-12 21:26:00,48.2,37.8,28.91,East,93,0.0,0.0,67,0.00,,OVC130,0.00,VWS V14.00,2013-01-13 02:26:00,
2013-01-12 21:29:00,48.0,37.6,28.91,East,93,0.0,0.0,67,0.00,,OVC130,0.00,VWS V14.00,2013-01-13 02:29:00,
2013-01-12 21:30:00,48.0,37.6,28.91,East,93,0.0,0.0,67,0.00,,OVC130,0.00,VWS V14.00,2013-01-13 02:30:00,
2013-01-12 21:31:00,48.0,37.6,28.91,East,93,0.0,0.0,67,0.00,,OVC130,0.00,VWS V14.00,2013-01-13 02:31:00,
2013-01-12 21:34:00,47.8,37.8,28.91,East,93,0.0,0.0,68,0.00,,OVC130,0.00,VWS V14.00,2013-01-13 02:34:00,
2013-01-12 21:35:00,47.8,37.8,28.91,East,93,0.0,0.0,68,0.00,,OVC130,0.00,VWS V14.00,2013-01-13 02:35:00,
2013-01-12 21:36:00,47.8,37.8,28.91,East,93,0.0,0.0,68,0.00,,OVC130,0.00,VWS V14.00,2013-01-13 02:36:00,
2013-01-12 21:39:00,48.0,38.0,28.91,East,93,0.0,0.0,68,0.00,,OVC130,0.00,VWS V14.00,2013-01-13 02:39:00,
2013-01-12 21:40:00,48.0,38.0,28.91,East,93,0.0,0.0,68,0.00,,OVC130,0.00,VWS V14.00,2013-01-13 02:40:00,
2013-01-12 21:41:00,48.0,38.0,28.91,East,93,0.0,0.0,68,0.00,,OVC130,0.00,VWS V14.00,2013-01-13 02:41:00,
2013-01-12 21:44:00,48.2,38.2,28.91,East,93,0.0,0.0,68,0.00,,OVC130,0.00,VWS V14.00,2013-01-13 02:44:00,
2013-01-12 21:46:00,48.2,38.2,28.91,East,93,0.0,0.0,68,0.00,,OVC130,0.00,VWS V14.00,2013-01-13 02:46:00,
2013-01-12 21:49:00,48.2,38.2,28.91,East,93,0.0,0.0,68,0.00,,OVC130,0.00,VWS V14.00,2013-01-13 02:49:00,
2013-01-12 21:50:00,48.2,38.2,28.91,East,93,0.0,0.0,68,0.00,,OVC130,0.00,VWS V14.00,2013-01-13 02:50:00,
2013-01-12 21:51:00,48.2,38.2,28.91,East,93,0.0,0.0,68,0.00,,OVC130,0.00,VWS V14.00,2013-01-13 02:51:00,
2013-01-12 21:54:00,48.0,38.3,28.91,East,93,0.0,0.0,69,0.00,,OVC130,0.00,VWS V14.00,2013-01-13 02:54:00,
2013-01-12 21:55:00,48.0,38.3,28.91,East,93,0.0,0.0,69,0.00,,OVC130,0.00,VWS V14.00,2013-01-13 02:55:00,
2013-01-12 21:56:00,48.0,38.3,28.91,East,93,0.0,0.0,69,0.00,,OVC130,0.00,VWS V14.00,2013-01-13 02:56:00,
2013-01-12 21:59:00,48.2,38.5,28.91,East,93,0.0,0.0,69,0.00,,OVC130,0.00,VWS V14.00,2013-01-13 02:59:00,
2013-01-12 22:00:00,48.2,38.5,28.91,East,93,0.0,0.0,69,0.00,,OVC130,0.00,VWS V14.00,2013-01-13 03:00:00,
2013-01-12 22:01:00,48.2,38.5,28.91,East,93,0.0,0.0,69,0.00,,OVC130,0.00,VWS V14.00,2013-01-13 03:01:00,
2013-01-12 22:05:00,48.4,38.7,28.91,East,93,0.0,0.0,69,0.00,,,0.00,VWS V14.00,2013-01-13 03:05:00,
2013-01-12 22:06:00,48.4,38.7,28.91,East,93,0.0,0.0,69,0.00,,,0.00,VWS V14.00,2013-01-13 03:06:00,
2013-01-12 22:10:00,48.4,38.7,28.91,East,93,0.0,0.0,69,0.00,,,0.00,VWS V14.00,2013-01-13 03:10:00,
2013-01-12 22:11:00,48.4,38.7,28.91,East,93,0.0,0.0,69,0.00,,,0.00,VWS V14.00,2013-01-13 03:11:00,
2013-01-12 22:12:00,48.4,38.7,28.91,East,93,0.0,0.0,69,0.00,,,0.00,VWS V14.00,2013-01-13 03:12:00,
2013-01-12 22:15:00,48.4,38.7,28.91,East,93,0.0,0.0,69,0.00,,,0.00,VWS V14.00,2013-01-13 03:15:00,
2013-01-12 22:16:00,48.2,38.5,28.91,East,93,0.0,0.0,69,0.00,,,0.00,VWS V14.00,2013-01-13 03:16:00,
2013-01-12 22:17:00,48.2,38.5,28.91,East,93,0.0,0.0,69,0.00,,,0.00,VWS V14.00,2013-01-13 03:17:00,
2013-01-12 22:20:00,48.0,38.7,28.91,East,93,0.0,0.0,70,0.00,,,0.00,VWS V14.00,2013-01-13 03:20:00,
2013-01-12 22:21:00,48.0,38.7,28.91,East,93,0.0,0.0,70,0.00,,,0.00,VWS V14.00,2013-01-13 03:21:00,
2013-01-12 22:22:00,48.0,38.7,28.91,East,93,0.0,0.0,70,0.00,,,0.00,VWS V14.00,2013-01-13 03:22:00,
2013-01-12 22:25:00,47.8,38.5,28.91,East,93,0.0,0.0,70,0.00,,,0.00,VWS V14.00,2013-01-13 03:25:00,
2013-01-12 22:26:00,47.8,38.5,28.91,East,93,0.0,0.0,70,0.00,,,0.00,VWS V14.00,2013-01-13 03:26:00,
2013-01-12 22:27:00,47.8,38.5,28.91,East,93,0.0,0.0,70,0.00,,,0.00,VWS V14.00,2013-01-13 03:27:00,
2013-01-12 22:30:00,47.7,38.4,28.91,East,93,0.0,0.0,70,0.00,,,0.00,VWS V14.00,2013-01-13 03:30:00,
2013-01-12 22:31:00,47.5,38.2,28.91,East,93,0.0,0.0,70,0.00,,,0.00,VWS V14.00,2013-01-13 03:31:00,
2013-01-12 22:32:00,47.5,38.2,28.91,East,93,0.0,0.0,70,0.00,,,0.00,VWS V14.00,2013-01-13 03:32:00,
2013-01-12 22:35:00,47.5,38.2,28.91,East,93,0.0,0.0,70,0.00,,,0.00,VWS V14.00,2013-01-13 03:35:00,
2013-01-12 22:36:00,47.5,38.2,28.91,East,93,0.0,0.0,70,0.00,,,0.00,VWS V14.00,2013-01-13 03:36:00,
2013-01-12 22:37:00,47.5,38.6,28.91,East,93,0.0,0.0,71,0.00,,,0.00,VWS V14.00,2013-01-13 03:37:00,
2013-01-12 22:41:00,47.5,38.6,28.88,East,93,0.0,0.0,71,0.00,,,0.00,VWS V14.00,2013-01-13 03:41:00,
2013-01-12 22:42:00,47.5,38.6,28.88,East,93,0.0,0.0,71,0.00,,,0.00,VWS V14.00,2013-01-13 03:42:00,
2013-01-12 22:46:00,47.5,38.6,28.88,East,93,0.0,0.0,71,0.00,,,0.00,VWS V14.00,2013-01-13 03:46:00,
2013-01-12 22:47:00,47.5,38.6,28.88,East,93,0.0,0.0,71,0.00,,,0.00,VWS V14.00,2013-01-13 03:47:00,
2013-01-12 22:51:00,47.3,38.4,28.88,East,93,0.0,0.0,71,0.00,,,0.00,VWS V14.00,2013-01-13 03:51:00,
2013-01-12 22:52:00,47.3,38.4,28.88,East,93,0.0,0.0,71,0.00,,,0.00,VWS V14.00,2013-01-13 03:52:00,
2013-01-12 22:56:00,47.1,38.2,28.88,East,93,0.0,0.0,71,0.00,,,0.00,VWS V14.00,2013-01-13 03:56:00,
2013-01-12 22:57:00,47.1,38.2,28.88,East,93,0.0,0.0,71,0.00,,,0.00,VWS V14.00,2013-01-13 03:57:00,
2013-01-12 23:01:00,47.1,38.2,28.88,East,93,0.0,0.0,71,0.00,,,0.00,VWS V14.00,2013-01-13 04:01:00,
2013-01-12 23:02:00,47.1,38.2,28.88,East,93,0.0,0.0,71,0.00,,,0.00,VWS V14.00,2013-01-13 04:02:00,
2013-01-12 23:06:00,47.3,38.4,28.88,East,93,0.0,0.0,71,0.00,,,0.00,VWS V14.00,2013-01-13 04:06:00,
2013-01-12 23:07:00,47.3,38.7,28.88,East,93,0.0,0.0,72,0.00,,,0.00,VWS V14.00,2013-01-13 04:07:00,
2013-01-12 23:08:00,47.3,38.7,28.88,East,93,0.0,0.0,72,0.00,,,0.00,VWS V14.00,2013-01-13 04:08:00,
2013-01-12 23:11:00,47.3,38.7,28.88,East,93,0.0,0.0,72,0.00,,,0.00,VWS V14.00,2013-01-13 04:11:00,
2013-01-12 23:12:00,47.3,38.7,28.88,East,93,0.0,0.0,72,0.00,,,0.00,VWS V14.00,2013-01-13 04:12:00,
2013-01-12 23:13:00,47.3,38.7,28.88,East,93,0.0,0.0,72,0.00,,,0.00,VWS V14.00,2013-01-13 04:13:00,
2013-01-12 23:16:00,47.5,38.9,28.88,East,93,0.0,0.0,72,0.00,,,0.00,VWS V14.00,2013-01-13 04:16:00,
2013-01-12 23:17:00,47.5,38.9,28.88,East,93,0.0,0.0,72,0.00,,,0.00,VWS V14.00,2013-01-13 04:17:00,
2013-01-12 23:18:00,47.5,38.9,28.88,East,93,0.0,0.0,72,0.00,,,0.00,VWS V14.00,2013-01-13 04:18:00,
2013-01-12 23:21:00,47.5,38.9,28.88,East,93,0.0,0.0,72,0.00,,,0.00,VWS V14.00,2013-01-13 04:21:00,
2013-01-12 23:22:00,47.5,38.9,28.88,East,93,0.0,0.0,72,0.00,,,0.00,VWS V14.00,2013-01-13 04:22:00,
2013-01-12 23:23:00,47.5,38.9,28.88,East,93,0.0,0.0,72,0.00,,,0.00,VWS V14.00,2013-01-13 04:23:00,
2013-01-12 23:26:00,47.7,39.1,28.88,East,93,0.0,0.0,72,0.00,,,0.00,VWS V14.00,2013-01-13 04:26:00,
2013-01-12 23:27:00,47.7,39.1,28.88,East,93,0.0,0.0,72,0.00,,,0.00,VWS V14.00,2013-01-13 04:27:00,
2013-01-12 23:28:00,47.7,39.1,28.88,East,93,0.0,0.0,72,0.00,,,0.00,VWS V14.00,2013-01-13 04:28:00,
2013-01-12 23:32:00,47.7,39.1,28.88,East,93,0.0,0.0,72,0.00,,,0.00,VWS V14.00,2013-01-13 04:32:00,
2013-01-12 23:33:00,47.7,39.4,28.88,East,93,0.0,0.0,73,0.00,,,0.00,VWS V14.00,2013-01-13 04:33:00,
2013-01-12 23:37:00,47.8,39.6,28.88,East,93,0.0,0.0,73,0.00,,,0.00,VWS V14.00,2013-01-13 04:37:00,
2013-01-12 23:38:00,47.8,39.6,28.88,East,93,0.0,0.0,73,0.00,,,0.00,VWS V14.00,2013-01-13 04:38:00,
2013-01-12 23:39:00,48.0,39.8,28.88,East,93,0.0,0.0,73,0.00,,,0.00,VWS V14.00,2013-01-13 04:39:00,
2013-01-12 23:42:00,48.4,40.1,28.88,East,93,0.0,0.0,73,0.00,,,0.00,VWS V14.00,2013-01-13 04:42:00,
2013-01-12 23:43:00,48.4,40.1,28.88,East,93,0.0,0.0,73,0.00,,,0.00,VWS V14.00,2013-01-13 04:43:00,
2013-01-12 23:44:00,48.4,40.1,28.88,East,93,0.0,0.0,73,0.00,,,0.00,VWS V14.00,2013-01-13 04:44:00,
2013-01-12 23:47:00,48.7,40.5,28.88,South,176,0.0,0.0,73,0.00,,,0.00,VWS V14.00,2013-01-13 04:47:00,
2013-01-12 23:48:00,48.9,40.7,28.88,South,175,0.0,0.0,73,0.00,,,0.00,VWS V14.00,2013-01-13 04:48:00,
2013-01-12 23:49:00,48.9,40.7,28.88,South,176,0.0,0.0,73,0.00,,,0.00,VWS V14.00,2013-01-13 04:49:00,
2013-01-12 23:52:00,49.3,41.0,28.88,South,175,0.0,0.0,73,0.00,,,0.00,VWS V14.00,2013-01-13 04:52:00,
2013-01-12 23:53:00,49.5,41.2,28.88,South,175,0.0,0.0,73,0.00,,,0.00,VWS V14.00,2013-01-13 04:53:00,
2013-01-12 23:54:00,49.5,41.2,28.88,SSW,197,0.0,0.0,73,0.00,,,0.00,VWS V14.00,2013-01-13 04:54:00,
2013-01-12 23:57:00,49.6,41.3,28.88,SSW,197,0.0,0.0,73,0.00,,,0.00,VWS V14.00,2013-01-13 04:57:00,
2013-01-12 23:58:00,49.6,41.3,28.88,South,181,3.1,3.1,73,0.00,,,0.00,VWS V14.00,2013-01-13 04:58:00,
2013-01-12 23:59:00,49.6,41.3,28.88,South,187,2.7,2.7,73,0.00,,,0.00,VWS V14.00,2013-01-13 04:59:00,